<?xml version="1.0" encoding="UTF-8" standalone="no" ?>
<gpx xmlns="http://www.topografix.com/GPX/1/1" xmlns:xsi="http://www.w3.org/2001/XMLSchema-instance" xsi:schemaLocation="http://www.topografix.com/GPX/1/1 http://www.topografix.com/GPX/1/1/gpx.xsd" version="1.1" creator="VisuGPX - https://www.visugpx.com">
  <metadata>
    <name>Ravins des Arcs - St Martin de Londres</name>
    <desc><![CDATA[Très belle randonnée]]></desc>
  </metadata>
  <trk>
    <name><![CDATA[ravin_des_arcs]]></name>
    <trkseg>
      <trkpt lat="43.81371" lon="3.74106">
        <ele>147.218994</ele>
        <time>2015-03-28T10:04:24Z</time>
      </trkpt>
      <trkpt lat="43.8137" lon="3.74106">
        <ele>150.583618</ele>
        <time>2015-03-28T10:04:26Z</time>
      </trkpt>
      <trkpt lat="43.8137" lon="3.74105">
        <ele>153.948364</ele>
        <time>2015-03-28T10:04:29Z</time>
      </trkpt>
      <trkpt lat="43.8137" lon="3.74105">
        <ele>155.390259</ele>
        <time>2015-03-28T10:04:31Z</time>
      </trkpt>
      <trkpt lat="43.81372" lon="3.74103">
        <ele>159.716187</ele>
        <time>2015-03-28T10:04:34Z</time>
      </trkpt>
      <trkpt lat="43.81373" lon="3.74103">
        <ele>162.600098</ele>
        <time>2015-03-28T10:04:36Z</time>
      </trkpt>
      <trkpt lat="43.81374" lon="3.74104">
        <ele>164.042114</ele>
        <time>2015-03-28T10:04:38Z</time>
      </trkpt>
      <trkpt lat="43.81378" lon="3.74103">
        <ele>167.887329</ele>
        <time>2015-03-28T10:04:43Z</time>
      </trkpt>
      <trkpt lat="43.81379" lon="3.74103">
        <ele>167.887329</ele>
        <time>2015-03-28T10:04:44Z</time>
      </trkpt>
      <trkpt lat="43.81383" lon="3.74102">
        <ele>169.329468</ele>
        <time>2015-03-28T10:04:48Z</time>
      </trkpt>
      <trkpt lat="43.81387" lon="3.74102">
        <ele>170.771362</ele>
        <time>2015-03-28T10:04:52Z</time>
      </trkpt>
      <trkpt lat="43.81388" lon="3.74105">
        <ele>171.732666</ele>
        <time>2015-03-28T10:04:55Z</time>
      </trkpt>
      <trkpt lat="43.81393" lon="3.74101">
        <ele>172.69397</ele>
        <time>2015-03-28T10:04:59Z</time>
      </trkpt>
      <trkpt lat="43.81396" lon="3.74095">
        <ele>175.577881</ele>
        <time>2015-03-28T10:05:09Z</time>
      </trkpt>
      <trkpt lat="43.81396" lon="3.74095">
        <ele>178.461914</ele>
        <time>2015-03-28T10:05:26Z</time>
      </trkpt>
      <trkpt lat="43.81396" lon="3.74093">
        <ele>178.461914</ele>
        <time>2015-03-28T10:05:28Z</time>
      </trkpt>
      <trkpt lat="43.81396" lon="3.74089">
        <ele>178.461914</ele>
        <time>2015-03-28T10:05:31Z</time>
      </trkpt>
      <trkpt lat="43.81395" lon="3.74083">
        <ele>179.423218</ele>
        <time>2015-03-28T10:05:35Z</time>
      </trkpt>
      <trkpt lat="43.81395" lon="3.74081">
        <ele>179.903809</ele>
        <time>2015-03-28T10:05:40Z</time>
      </trkpt>
      <trkpt lat="43.81394" lon="3.74072">
        <ele>180.865234</ele>
        <time>2015-03-28T10:05:48Z</time>
      </trkpt>
      <trkpt lat="43.81393" lon="3.74069">
        <ele>181.826416</ele>
        <time>2015-03-28T10:05:50Z</time>
      </trkpt>
      <trkpt lat="43.81391" lon="3.74058">
        <ele>182.787842</ele>
        <time>2015-03-28T10:05:59Z</time>
      </trkpt>
      <trkpt lat="43.81388" lon="3.74052">
        <ele>184.229858</ele>
        <time>2015-03-28T10:06:03Z</time>
      </trkpt>
      <trkpt lat="43.8139" lon="3.74043">
        <ele>183.268433</ele>
        <time>2015-03-28T10:06:09Z</time>
      </trkpt>
      <trkpt lat="43.81392" lon="3.74031">
        <ele>183.749023</ele>
        <time>2015-03-28T10:06:21Z</time>
      </trkpt>
      <trkpt lat="43.81391" lon="3.74029">
        <ele>183.749023</ele>
        <time>2015-03-28T10:06:24Z</time>
      </trkpt>
      <trkpt lat="43.81391" lon="3.74019">
        <ele>183.268433</ele>
        <time>2015-03-28T10:06:30Z</time>
      </trkpt>
      <trkpt lat="43.8139" lon="3.74014">
        <ele>183.268433</ele>
        <time>2015-03-28T10:06:34Z</time>
      </trkpt>
      <trkpt lat="43.81389" lon="3.74003">
        <ele>183.749023</ele>
        <time>2015-03-28T10:06:41Z</time>
      </trkpt>
      <trkpt lat="43.81387" lon="3.73989">
        <ele>183.749023</ele>
        <time>2015-03-28T10:06:50Z</time>
      </trkpt>
      <trkpt lat="43.81386" lon="3.73976">
        <ele>183.268433</ele>
        <time>2015-03-28T10:07:00Z</time>
      </trkpt>
      <trkpt lat="43.81385" lon="3.73974">
        <ele>184.229858</ele>
        <time>2015-03-28T10:07:06Z</time>
      </trkpt>
      <trkpt lat="43.81377" lon="3.73958">
        <ele>182.787842</ele>
        <time>2015-03-28T10:07:19Z</time>
      </trkpt>
      <trkpt lat="43.81377" lon="3.73956">
        <ele>182.307129</ele>
        <time>2015-03-28T10:07:21Z</time>
      </trkpt>
      <trkpt lat="43.81381" lon="3.73949">
        <ele>183.268433</ele>
        <time>2015-03-28T10:07:28Z</time>
      </trkpt>
      <trkpt lat="43.81389" lon="3.73945">
        <ele>183.268433</ele>
        <time>2015-03-28T10:07:35Z</time>
      </trkpt>
      <trkpt lat="43.81395" lon="3.73938">
        <ele>184.229858</ele>
        <time>2015-03-28T10:07:46Z</time>
      </trkpt>
      <trkpt lat="43.81395" lon="3.7394">
        <ele>183.749023</ele>
        <time>2015-03-28T10:08:01Z</time>
      </trkpt>
      <trkpt lat="43.81397" lon="3.73936">
        <ele>185.191162</ele>
        <time>2015-03-28T10:08:10Z</time>
      </trkpt>
      <trkpt lat="43.81401" lon="3.73925">
        <ele>186.152466</ele>
        <time>2015-03-28T10:08:17Z</time>
      </trkpt>
      <trkpt lat="43.81404" lon="3.73907">
        <ele>189.036377</ele>
        <time>2015-03-28T10:08:30Z</time>
      </trkpt>
      <trkpt lat="43.81404" lon="3.73904">
        <ele>189.516968</ele>
        <time>2015-03-28T10:08:32Z</time>
      </trkpt>
      <trkpt lat="43.81406" lon="3.73892">
        <ele>190.478394</ele>
        <time>2015-03-28T10:08:42Z</time>
      </trkpt>
      <trkpt lat="43.81409" lon="3.73889">
        <ele>190.958984</ele>
        <time>2015-03-28T10:08:45Z</time>
      </trkpt>
      <trkpt lat="43.8141" lon="3.73886">
        <ele>191.439575</ele>
        <time>2015-03-28T10:08:47Z</time>
      </trkpt>
      <trkpt lat="43.8141" lon="3.73882">
        <ele>191.920288</ele>
        <time>2015-03-28T10:08:50Z</time>
      </trkpt>
      <trkpt lat="43.81413" lon="3.73879">
        <ele>193.362305</ele>
        <time>2015-03-28T10:08:55Z</time>
      </trkpt>
      <trkpt lat="43.81416" lon="3.73877">
        <ele>193.843018</ele>
        <time>2015-03-28T10:08:59Z</time>
      </trkpt>
      <trkpt lat="43.81417" lon="3.73871">
        <ele>194.32373</ele>
        <time>2015-03-28T10:09:04Z</time>
      </trkpt>
      <trkpt lat="43.8142" lon="3.73862">
        <ele>197.20752</ele>
        <time>2015-03-28T10:09:13Z</time>
      </trkpt>
      <trkpt lat="43.8142" lon="3.73856">
        <ele>197.688232</ele>
        <time>2015-03-28T10:09:26Z</time>
      </trkpt>
      <trkpt lat="43.81417" lon="3.7385">
        <ele>196.726929</ele>
        <time>2015-03-28T10:09:32Z</time>
      </trkpt>
      <trkpt lat="43.81413" lon="3.73845">
        <ele>196.726929</ele>
        <time>2015-03-28T10:09:38Z</time>
      </trkpt>
      <trkpt lat="43.81407" lon="3.73831">
        <ele>198.168945</ele>
        <time>2015-03-28T10:09:50Z</time>
      </trkpt>
      <trkpt lat="43.81404" lon="3.73822">
        <ele>198.168945</ele>
        <time>2015-03-28T10:10:03Z</time>
      </trkpt>
      <trkpt lat="43.81396" lon="3.73823">
        <ele>198.649536</ele>
        <time>2015-03-28T10:10:19Z</time>
      </trkpt>
      <trkpt lat="43.81395" lon="3.73824">
        <ele>198.649536</ele>
        <time>2015-03-28T10:10:20Z</time>
      </trkpt>
      <trkpt lat="43.81393" lon="3.73825">
        <ele>198.168945</ele>
        <time>2015-03-28T10:10:22Z</time>
      </trkpt>
      <trkpt lat="43.81381" lon="3.73829">
        <ele>197.688232</ele>
        <time>2015-03-28T10:10:31Z</time>
      </trkpt>
      <trkpt lat="43.81364" lon="3.73836">
        <ele>199.61084</ele>
        <time>2015-03-28T10:10:45Z</time>
      </trkpt>
      <trkpt lat="43.81363" lon="3.73836">
        <ele>199.61084</ele>
        <time>2015-03-28T10:10:46Z</time>
      </trkpt>
      <trkpt lat="43.81358" lon="3.73835">
        <ele>200.091675</ele>
        <time>2015-03-28T10:10:50Z</time>
      </trkpt>
      <trkpt lat="43.81356" lon="3.73831">
        <ele>201.052856</ele>
        <time>2015-03-28T10:10:54Z</time>
      </trkpt>
      <trkpt lat="43.81361" lon="3.73819">
        <ele>202.494873</ele>
        <time>2015-03-28T10:11:03Z</time>
      </trkpt>
      <trkpt lat="43.81357" lon="3.73807">
        <ele>205.378784</ele>
        <time>2015-03-28T10:11:11Z</time>
      </trkpt>
      <trkpt lat="43.81357" lon="3.73801">
        <ele>206.340088</ele>
        <time>2015-03-28T10:11:16Z</time>
      </trkpt>
      <trkpt lat="43.81354" lon="3.73786">
        <ele>207.782104</ele>
        <time>2015-03-28T10:11:30Z</time>
      </trkpt>
      <trkpt lat="43.81353" lon="3.73777">
        <ele>211.146729</ele>
        <time>2015-03-28T10:11:44Z</time>
      </trkpt>
      <trkpt lat="43.81357" lon="3.73768">
        <ele>211.627441</ele>
        <time>2015-03-28T10:11:52Z</time>
      </trkpt>
      <trkpt lat="43.81364" lon="3.73756">
        <ele>211.146729</ele>
        <time>2015-03-28T10:12:06Z</time>
      </trkpt>
      <trkpt lat="43.81369" lon="3.73752">
        <ele>214.03064</ele>
        <time>2015-03-28T10:12:19Z</time>
      </trkpt>
      <trkpt lat="43.81376" lon="3.7374">
        <ele>215.953247</ele>
        <time>2015-03-28T10:12:31Z</time>
      </trkpt>
      <trkpt lat="43.81382" lon="3.73728">
        <ele>216.914673</ele>
        <time>2015-03-28T10:12:42Z</time>
      </trkpt>
      <trkpt lat="43.8139" lon="3.73717">
        <ele>218.83728</ele>
        <time>2015-03-28T10:12:53Z</time>
      </trkpt>
      <trkpt lat="43.81397" lon="3.73703">
        <ele>219.317993</ele>
        <time>2015-03-28T10:13:05Z</time>
      </trkpt>
      <trkpt lat="43.81406" lon="3.73692">
        <ele>221.240601</ele>
        <time>2015-03-28T10:13:18Z</time>
      </trkpt>
      <trkpt lat="43.81409" lon="3.73689">
        <ele>222.201782</ele>
        <time>2015-03-28T10:13:22Z</time>
      </trkpt>
      <trkpt lat="43.81419" lon="3.73681">
        <ele>223.163208</ele>
        <time>2015-03-28T10:13:34Z</time>
      </trkpt>
      <trkpt lat="43.81426" lon="3.73672">
        <ele>225.085938</ele>
        <time>2015-03-28T10:13:42Z</time>
      </trkpt>
      <trkpt lat="43.81431" lon="3.73663">
        <ele>226.047119</ele>
        <time>2015-03-28T10:13:49Z</time>
      </trkpt>
      <trkpt lat="43.81435" lon="3.73648">
        <ele>227.489136</ele>
        <time>2015-03-28T10:14:02Z</time>
      </trkpt>
      <trkpt lat="43.81429" lon="3.73635">
        <ele>230.85376</ele>
        <time>2015-03-28T10:14:15Z</time>
      </trkpt>
      <trkpt lat="43.81429" lon="3.73633">
        <ele>230.373047</ele>
        <time>2015-03-28T10:14:46Z</time>
      </trkpt>
      <trkpt lat="43.81423" lon="3.73627">
        <ele>230.373047</ele>
        <time>2015-03-28T10:14:50Z</time>
      </trkpt>
      <trkpt lat="43.8142" lon="3.73618">
        <ele>229.892334</ele>
        <time>2015-03-28T10:14:55Z</time>
      </trkpt>
      <trkpt lat="43.81417" lon="3.73612">
        <ele>229.411743</ele>
        <time>2015-03-28T10:15:00Z</time>
      </trkpt>
      <trkpt lat="43.81415" lon="3.73606">
        <ele>228.931152</ele>
        <time>2015-03-28T10:15:03Z</time>
      </trkpt>
      <trkpt lat="43.81413" lon="3.736">
        <ele>229.411743</ele>
        <time>2015-03-28T10:15:07Z</time>
      </trkpt>
      <trkpt lat="43.81414" lon="3.73593">
        <ele>230.373047</ele>
        <time>2015-03-28T10:15:13Z</time>
      </trkpt>
      <trkpt lat="43.81415" lon="3.73587">
        <ele>229.892334</ele>
        <time>2015-03-28T10:15:26Z</time>
      </trkpt>
      <trkpt lat="43.81416" lon="3.73583">
        <ele>230.373047</ele>
        <time>2015-03-28T10:15:34Z</time>
      </trkpt>
      <trkpt lat="43.81416" lon="3.73574">
        <ele>232.295776</ele>
        <time>2015-03-28T10:15:48Z</time>
      </trkpt>
      <trkpt lat="43.81417" lon="3.7357">
        <ele>235.660278</ele>
        <time>2015-03-28T10:16:00Z</time>
      </trkpt>
      <trkpt lat="43.81417" lon="3.73569">
        <ele>234.699097</ele>
        <time>2015-03-28T10:16:01Z</time>
      </trkpt>
      <trkpt lat="43.81415" lon="3.73552">
        <ele>233.737671</ele>
        <time>2015-03-28T10:16:15Z</time>
      </trkpt>
      <trkpt lat="43.81413" lon="3.73547">
        <ele>235.660278</ele>
        <time>2015-03-28T10:16:20Z</time>
      </trkpt>
      <trkpt lat="43.81413" lon="3.73535">
        <ele>235.660278</ele>
        <time>2015-03-28T10:16:26Z</time>
      </trkpt>
      <trkpt lat="43.81412" lon="3.73526">
        <ele>236.621704</ele>
        <time>2015-03-28T10:16:31Z</time>
      </trkpt>
      <trkpt lat="43.81413" lon="3.73523">
        <ele>236.621704</ele>
        <time>2015-03-28T10:16:33Z</time>
      </trkpt>
      <trkpt lat="43.81413" lon="3.7352">
        <ele>237.102295</ele>
        <time>2015-03-28T10:16:35Z</time>
      </trkpt>
      <trkpt lat="43.81414" lon="3.73514">
        <ele>238.063599</ele>
        <time>2015-03-28T10:16:38Z</time>
      </trkpt>
      <trkpt lat="43.81413" lon="3.735">
        <ele>238.544312</ele>
        <time>2015-03-28T10:16:46Z</time>
      </trkpt>
      <trkpt lat="43.81411" lon="3.73494">
        <ele>239.024902</ele>
        <time>2015-03-28T10:16:50Z</time>
      </trkpt>
      <trkpt lat="43.81411" lon="3.73476">
        <ele>239.024902</ele>
        <time>2015-03-28T10:17:03Z</time>
      </trkpt>
      <trkpt lat="43.81411" lon="3.73469">
        <ele>239.986206</ele>
        <time>2015-03-28T10:17:07Z</time>
      </trkpt>
      <trkpt lat="43.81411" lon="3.73458">
        <ele>239.986206</ele>
        <time>2015-03-28T10:17:13Z</time>
      </trkpt>
      <trkpt lat="43.81411" lon="3.73439">
        <ele>240.467041</ele>
        <time>2015-03-28T10:17:27Z</time>
      </trkpt>
      <trkpt lat="43.81413" lon="3.7343">
        <ele>241.428223</ele>
        <time>2015-03-28T10:17:34Z</time>
      </trkpt>
      <trkpt lat="43.81414" lon="3.73428">
        <ele>240.467041</ele>
        <time>2015-03-28T10:17:36Z</time>
      </trkpt>
      <trkpt lat="43.81418" lon="3.73416">
        <ele>240.947632</ele>
        <time>2015-03-28T10:17:45Z</time>
      </trkpt>
      <trkpt lat="43.81419" lon="3.73406">
        <ele>241.908936</ele>
        <time>2015-03-28T10:17:53Z</time>
      </trkpt>
      <trkpt lat="43.81428" lon="3.73389">
        <ele>242.389648</ele>
        <time>2015-03-28T10:18:05Z</time>
      </trkpt>
      <trkpt lat="43.81437" lon="3.73374">
        <ele>242.389648</ele>
        <time>2015-03-28T10:18:18Z</time>
      </trkpt>
      <trkpt lat="43.8144" lon="3.73369">
        <ele>241.908936</ele>
        <time>2015-03-28T10:18:22Z</time>
      </trkpt>
      <trkpt lat="43.81439" lon="3.73347">
        <ele>242.389648</ele>
        <time>2015-03-28T10:18:36Z</time>
      </trkpt>
      <trkpt lat="43.81438" lon="3.73333">
        <ele>242.870239</ele>
        <time>2015-03-28T10:18:47Z</time>
      </trkpt>
      <trkpt lat="43.81437" lon="3.73317">
        <ele>242.870239</ele>
        <time>2015-03-28T10:18:59Z</time>
      </trkpt>
      <trkpt lat="43.81434" lon="3.73304">
        <ele>243.35083</ele>
        <time>2015-03-28T10:19:10Z</time>
      </trkpt>
      <trkpt lat="43.81432" lon="3.73299">
        <ele>243.35083</ele>
        <time>2015-03-28T10:19:15Z</time>
      </trkpt>
      <trkpt lat="43.81429" lon="3.73288">
        <ele>242.870239</ele>
        <time>2015-03-28T10:19:28Z</time>
      </trkpt>
      <trkpt lat="43.81428" lon="3.73272">
        <ele>242.870239</ele>
        <time>2015-03-28T10:19:41Z</time>
      </trkpt>
      <trkpt lat="43.81429" lon="3.73263">
        <ele>242.389648</ele>
        <time>2015-03-28T10:19:49Z</time>
      </trkpt>
      <trkpt lat="43.81429" lon="3.7325">
        <ele>241.908936</ele>
        <time>2015-03-28T10:20:00Z</time>
      </trkpt>
      <trkpt lat="43.8143" lon="3.73235">
        <ele>241.908936</ele>
        <time>2015-03-28T10:20:09Z</time>
      </trkpt>
      <trkpt lat="43.81432" lon="3.73234">
        <ele>241.908936</ele>
        <time>2015-03-28T10:20:20Z</time>
      </trkpt>
      <trkpt lat="43.81431" lon="3.7323">
        <ele>241.428223</ele>
        <time>2015-03-28T10:20:36Z</time>
      </trkpt>
      <trkpt lat="43.81431" lon="3.73228">
        <ele>240.467041</ele>
        <time>2015-03-28T10:20:38Z</time>
      </trkpt>
      <trkpt lat="43.8143" lon="3.7321">
        <ele>239.986206</ele>
        <time>2015-03-28T10:20:51Z</time>
      </trkpt>
      <trkpt lat="43.8143" lon="3.73198">
        <ele>239.024902</ele>
        <time>2015-03-28T10:20:59Z</time>
      </trkpt>
      <trkpt lat="43.81434" lon="3.73183">
        <ele>239.986206</ele>
        <time>2015-03-28T10:21:10Z</time>
      </trkpt>
      <trkpt lat="43.81445" lon="3.73176">
        <ele>239.024902</ele>
        <time>2015-03-28T10:21:22Z</time>
      </trkpt>
      <trkpt lat="43.81447" lon="3.73177">
        <ele>239.024902</ele>
        <time>2015-03-28T10:21:24Z</time>
      </trkpt>
      <trkpt lat="43.81455" lon="3.73178">
        <ele>239.024902</ele>
        <time>2015-03-28T10:21:31Z</time>
      </trkpt>
      <trkpt lat="43.81462" lon="3.73177">
        <ele>238.544312</ele>
        <time>2015-03-28T10:21:37Z</time>
      </trkpt>
      <trkpt lat="43.81469" lon="3.73178">
        <ele>238.544312</ele>
        <time>2015-03-28T10:21:42Z</time>
      </trkpt>
      <trkpt lat="43.81483" lon="3.7317">
        <ele>237.582886</ele>
        <time>2015-03-28T10:21:56Z</time>
      </trkpt>
      <trkpt lat="43.81493" lon="3.73167">
        <ele>238.544312</ele>
        <time>2015-03-28T10:22:05Z</time>
      </trkpt>
      <trkpt lat="43.81495" lon="3.73167">
        <ele>238.063599</ele>
        <time>2015-03-28T10:22:07Z</time>
      </trkpt>
      <trkpt lat="43.81503" lon="3.73164">
        <ele>237.102295</ele>
        <time>2015-03-28T10:22:14Z</time>
      </trkpt>
      <trkpt lat="43.81515" lon="3.7316">
        <ele>236.140991</ele>
        <time>2015-03-28T10:22:25Z</time>
      </trkpt>
      <trkpt lat="43.81525" lon="3.7316">
        <ele>235.179688</ele>
        <time>2015-03-28T10:22:34Z</time>
      </trkpt>
      <trkpt lat="43.81531" lon="3.7316">
        <ele>235.179688</ele>
        <time>2015-03-28T10:22:39Z</time>
      </trkpt>
      <trkpt lat="43.81537" lon="3.73163">
        <ele>233.737671</ele>
        <time>2015-03-28T10:22:45Z</time>
      </trkpt>
      <trkpt lat="43.81546" lon="3.73158">
        <ele>233.737671</ele>
        <time>2015-03-28T10:22:58Z</time>
      </trkpt>
      <trkpt lat="43.81553" lon="3.73157">
        <ele>232.295776</ele>
        <time>2015-03-28T10:23:12Z</time>
      </trkpt>
      <trkpt lat="43.81562" lon="3.73156">
        <ele>231.334351</ele>
        <time>2015-03-28T10:23:24Z</time>
      </trkpt>
      <trkpt lat="43.81565" lon="3.73156">
        <ele>230.373047</ele>
        <time>2015-03-28T10:23:26Z</time>
      </trkpt>
      <trkpt lat="43.8158" lon="3.73161">
        <ele>228.931152</ele>
        <time>2015-03-28T10:23:40Z</time>
      </trkpt>
      <trkpt lat="43.81587" lon="3.73162">
        <ele>228.450439</ele>
        <time>2015-03-28T10:23:50Z</time>
      </trkpt>
      <trkpt lat="43.81595" lon="3.73161">
        <ele>227.969727</ele>
        <time>2015-03-28T10:24:12Z</time>
      </trkpt>
      <trkpt lat="43.81596" lon="3.73169">
        <ele>226.047119</ele>
        <time>2015-03-28T10:24:33Z</time>
      </trkpt>
      <trkpt lat="43.81607" lon="3.7317">
        <ele>225.566528</ele>
        <time>2015-03-28T10:24:44Z</time>
      </trkpt>
      <trkpt lat="43.8162" lon="3.73174">
        <ele>224.605225</ele>
        <time>2015-03-28T10:25:00Z</time>
      </trkpt>
      <trkpt lat="43.81629" lon="3.7318">
        <ele>224.124512</ele>
        <time>2015-03-28T10:25:09Z</time>
      </trkpt>
      <trkpt lat="43.81633" lon="3.73181">
        <ele>223.643799</ele>
        <time>2015-03-28T10:25:12Z</time>
      </trkpt>
      <trkpt lat="43.81638" lon="3.73183">
        <ele>222.682495</ele>
        <time>2015-03-28T10:25:17Z</time>
      </trkpt>
      <trkpt lat="43.81639" lon="3.73183">
        <ele>223.163208</ele>
        <time>2015-03-28T10:25:19Z</time>
      </trkpt>
      <trkpt lat="43.81644" lon="3.73187">
        <ele>222.201782</ele>
        <time>2015-03-28T10:25:28Z</time>
      </trkpt>
      <trkpt lat="43.81644" lon="3.73186">
        <ele>222.682495</ele>
        <time>2015-03-28T10:25:58Z</time>
      </trkpt>
      <trkpt lat="43.81651" lon="3.73189">
        <ele>222.201782</ele>
        <time>2015-03-28T10:26:14Z</time>
      </trkpt>
      <trkpt lat="43.81658" lon="3.73193">
        <ele>220.759888</ele>
        <time>2015-03-28T10:26:21Z</time>
      </trkpt>
      <trkpt lat="43.81668" lon="3.73202">
        <ele>221.721191</ele>
        <time>2015-03-28T10:26:33Z</time>
      </trkpt>
      <trkpt lat="43.81674" lon="3.73209">
        <ele>221.721191</ele>
        <time>2015-03-28T10:26:42Z</time>
      </trkpt>
      <trkpt lat="43.81675" lon="3.7321">
        <ele>222.201782</ele>
        <time>2015-03-28T10:26:43Z</time>
      </trkpt>
      <trkpt lat="43.81682" lon="3.73216">
        <ele>221.721191</ele>
        <time>2015-03-28T10:26:54Z</time>
      </trkpt>
      <trkpt lat="43.81695" lon="3.73221">
        <ele>221.721191</ele>
        <time>2015-03-28T10:27:07Z</time>
      </trkpt>
      <trkpt lat="43.81708" lon="3.73224">
        <ele>221.240601</ele>
        <time>2015-03-28T10:27:20Z</time>
      </trkpt>
      <trkpt lat="43.81713" lon="3.73224">
        <ele>221.240601</ele>
        <time>2015-03-28T10:27:28Z</time>
      </trkpt>
      <trkpt lat="43.81715" lon="3.73226">
        <ele>221.240601</ele>
        <time>2015-03-28T10:27:31Z</time>
      </trkpt>
      <trkpt lat="43.8172" lon="3.7323">
        <ele>221.721191</ele>
        <time>2015-03-28T10:27:38Z</time>
      </trkpt>
      <trkpt lat="43.81731" lon="3.73232">
        <ele>221.721191</ele>
        <time>2015-03-28T10:27:52Z</time>
      </trkpt>
      <trkpt lat="43.81734" lon="3.73232">
        <ele>221.240601</ele>
        <time>2015-03-28T10:27:56Z</time>
      </trkpt>
      <trkpt lat="43.81744" lon="3.73241">
        <ele>221.240601</ele>
        <time>2015-03-28T10:28:09Z</time>
      </trkpt>
      <trkpt lat="43.81755" lon="3.73248">
        <ele>220.759888</ele>
        <time>2015-03-28T10:28:20Z</time>
      </trkpt>
      <trkpt lat="43.81765" lon="3.73255">
        <ele>221.240601</ele>
        <time>2015-03-28T10:28:32Z</time>
      </trkpt>
      <trkpt lat="43.81769" lon="3.73263">
        <ele>221.721191</ele>
        <time>2015-03-28T10:28:44Z</time>
      </trkpt>
      <trkpt lat="43.81773" lon="3.73268">
        <ele>220.759888</ele>
        <time>2015-03-28T10:28:57Z</time>
      </trkpt>
      <trkpt lat="43.81772" lon="3.73266">
        <ele>220.279175</ele>
        <time>2015-03-28T10:29:02Z</time>
      </trkpt>
      <trkpt lat="43.81777" lon="3.73257">
        <ele>218.356567</ele>
        <time>2015-03-28T10:29:14Z</time>
      </trkpt>
      <trkpt lat="43.81782" lon="3.73248">
        <ele>218.356567</ele>
        <time>2015-03-28T10:29:34Z</time>
      </trkpt>
      <trkpt lat="43.81778" lon="3.73256">
        <ele>218.356567</ele>
        <time>2015-03-28T10:29:58Z</time>
      </trkpt>
      <trkpt lat="43.81776" lon="3.73267">
        <ele>219.798584</ele>
        <time>2015-03-28T10:30:09Z</time>
      </trkpt>
      <trkpt lat="43.81782" lon="3.73273">
        <ele>220.279175</ele>
        <time>2015-03-28T10:30:20Z</time>
      </trkpt>
      <trkpt lat="43.81782" lon="3.73273">
        <ele>220.279175</ele>
        <time>2015-03-28T10:30:21Z</time>
      </trkpt>
      <trkpt lat="43.81783" lon="3.73276">
        <ele>219.798584</ele>
        <time>2015-03-28T10:30:31Z</time>
      </trkpt>
      <trkpt lat="43.81791" lon="3.73281">
        <ele>218.83728</ele>
        <time>2015-03-28T10:30:44Z</time>
      </trkpt>
      <trkpt lat="43.81794" lon="3.73281">
        <ele>217.875977</ele>
        <time>2015-03-28T10:30:51Z</time>
      </trkpt>
      <trkpt lat="43.81796" lon="3.73284">
        <ele>217.875977</ele>
        <time>2015-03-28T10:30:53Z</time>
      </trkpt>
      <trkpt lat="43.81799" lon="3.73285">
        <ele>216.914673</ele>
        <time>2015-03-28T10:30:56Z</time>
      </trkpt>
      <trkpt lat="43.81801" lon="3.73285">
        <ele>214.991943</ele>
        <time>2015-03-28T10:30:59Z</time>
      </trkpt>
      <trkpt lat="43.81803" lon="3.73288">
        <ele>213.550049</ele>
        <time>2015-03-28T10:31:09Z</time>
      </trkpt>
      <trkpt lat="43.81803" lon="3.73291">
        <ele>214.03064</ele>
        <time>2015-03-28T10:31:27Z</time>
      </trkpt>
      <trkpt lat="43.81808" lon="3.73292">
        <ele>213.550049</ele>
        <time>2015-03-28T10:31:33Z</time>
      </trkpt>
      <trkpt lat="43.81812" lon="3.73305">
        <ele>213.550049</ele>
        <time>2015-03-28T10:31:48Z</time>
      </trkpt>
      <trkpt lat="43.81813" lon="3.73307">
        <ele>214.991943</ele>
        <time>2015-03-28T10:31:50Z</time>
      </trkpt>
      <trkpt lat="43.81814" lon="3.73312">
        <ele>214.51123</ele>
        <time>2015-03-28T10:31:56Z</time>
      </trkpt>
      <trkpt lat="43.81814" lon="3.73318">
        <ele>216.914673</ele>
        <time>2015-03-28T10:32:01Z</time>
      </trkpt>
      <trkpt lat="43.81816" lon="3.73325">
        <ele>218.83728</ele>
        <time>2015-03-28T10:32:11Z</time>
      </trkpt>
      <trkpt lat="43.81814" lon="3.7333">
        <ele>219.798584</ele>
        <time>2015-03-28T10:32:22Z</time>
      </trkpt>
      <trkpt lat="43.81815" lon="3.73331">
        <ele>220.279175</ele>
        <time>2015-03-28T10:32:39Z</time>
      </trkpt>
      <trkpt lat="43.81816" lon="3.73334">
        <ele>220.759888</ele>
        <time>2015-03-28T10:32:52Z</time>
      </trkpt>
      <trkpt lat="43.81819" lon="3.73337">
        <ele>221.721191</ele>
        <time>2015-03-28T10:33:11Z</time>
      </trkpt>
      <trkpt lat="43.81818" lon="3.73335">
        <ele>221.721191</ele>
        <time>2015-03-28T10:33:33Z</time>
      </trkpt>
      <trkpt lat="43.81817" lon="3.73334">
        <ele>220.279175</ele>
        <time>2015-03-28T10:33:42Z</time>
      </trkpt>
      <trkpt lat="43.81816" lon="3.73334">
        <ele>218.83728</ele>
        <time>2015-03-28T10:33:56Z</time>
      </trkpt>
      <trkpt lat="43.81816" lon="3.73333">
        <ele>220.279175</ele>
        <time>2015-03-28T10:33:59Z</time>
      </trkpt>
      <trkpt lat="43.81817" lon="3.73333">
        <ele>218.83728</ele>
        <time>2015-03-28T10:34:04Z</time>
      </trkpt>
      <trkpt lat="43.81818" lon="3.73333">
        <ele>222.682495</ele>
        <time>2015-03-28T10:34:05Z</time>
      </trkpt>
      <trkpt lat="43.81818" lon="3.73333">
        <ele>220.759888</ele>
        <time>2015-03-28T10:34:06Z</time>
      </trkpt>
      <trkpt lat="43.81819" lon="3.73335">
        <ele>220.279175</ele>
        <time>2015-03-28T10:34:27Z</time>
      </trkpt>
      <trkpt lat="43.8182" lon="3.73335">
        <ele>216.43396</ele>
        <time>2015-03-28T10:34:32Z</time>
      </trkpt>
      <trkpt lat="43.8182" lon="3.73335">
        <ele>221.721191</ele>
        <time>2015-03-28T10:34:33Z</time>
      </trkpt>
      <trkpt lat="43.81822" lon="3.73335">
        <ele>214.51123</ele>
        <time>2015-03-28T10:34:36Z</time>
      </trkpt>
      <trkpt lat="43.81824" lon="3.73336">
        <ele>221.721191</ele>
        <time>2015-03-28T10:34:37Z</time>
      </trkpt>
      <trkpt lat="43.8182" lon="3.73336">
        <ele>218.356567</ele>
        <time>2015-03-28T10:34:49Z</time>
      </trkpt>
      <trkpt lat="43.8182" lon="3.73336">
        <ele>218.356567</ele>
        <time>2015-03-28T10:34:50Z</time>
      </trkpt>
      <trkpt lat="43.8182" lon="3.73336">
        <ele>220.759888</ele>
        <time>2015-03-28T10:34:54Z</time>
      </trkpt>
      <trkpt lat="43.81822" lon="3.73333">
        <ele>216.43396</ele>
        <time>2015-03-28T10:35:15Z</time>
      </trkpt>
      <trkpt lat="43.81821" lon="3.73333">
        <ele>223.163208</ele>
        <time>2015-03-28T10:35:16Z</time>
      </trkpt>
      <trkpt lat="43.81822" lon="3.73334">
        <ele>219.798584</ele>
        <time>2015-03-28T10:35:19Z</time>
      </trkpt>
      <trkpt lat="43.81811" lon="3.73337">
        <ele>220.279175</ele>
        <time>2015-03-28T10:35:32Z</time>
      </trkpt>
      <trkpt lat="43.81811" lon="3.73336">
        <ele>220.759888</ele>
        <time>2015-03-28T10:35:49Z</time>
      </trkpt>
      <trkpt lat="43.81817" lon="3.73335">
        <ele>220.279175</ele>
        <time>2015-03-28T10:36:06Z</time>
      </trkpt>
      <trkpt lat="43.81816" lon="3.73335">
        <ele>219.317993</ele>
        <time>2015-03-28T10:36:25Z</time>
      </trkpt>
      <trkpt lat="43.81819" lon="3.73336">
        <ele>218.83728</ele>
        <time>2015-03-28T10:36:50Z</time>
      </trkpt>
      <trkpt lat="43.81818" lon="3.73334">
        <ele>214.991943</ele>
        <time>2015-03-28T10:37:11Z</time>
      </trkpt>
      <trkpt lat="43.81817" lon="3.73334">
        <ele>218.83728</ele>
        <time>2015-03-28T10:37:13Z</time>
      </trkpt>
      <trkpt lat="43.81817" lon="3.73335">
        <ele>218.356567</ele>
        <time>2015-03-28T10:37:14Z</time>
      </trkpt>
      <trkpt lat="43.81814" lon="3.73338">
        <ele>222.201782</ele>
        <time>2015-03-28T10:37:39Z</time>
      </trkpt>
      <trkpt lat="43.81815" lon="3.73336">
        <ele>218.83728</ele>
        <time>2015-03-28T10:37:47Z</time>
      </trkpt>
      <trkpt lat="43.81816" lon="3.73335">
        <ele>215.472656</ele>
        <time>2015-03-28T10:38:11Z</time>
      </trkpt>
      <trkpt lat="43.81816" lon="3.73335">
        <ele>215.472656</ele>
        <time>2015-03-28T10:38:12Z</time>
      </trkpt>
      <trkpt lat="43.81816" lon="3.73335">
        <ele>221.240601</ele>
        <time>2015-03-28T10:38:13Z</time>
      </trkpt>
      <trkpt lat="43.81817" lon="3.73335">
        <ele>217.875977</ele>
        <time>2015-03-28T10:38:14Z</time>
      </trkpt>
      <trkpt lat="43.81817" lon="3.73337">
        <ele>217.875977</ele>
        <time>2015-03-28T10:38:30Z</time>
      </trkpt>
      <trkpt lat="43.81814" lon="3.73336">
        <ele>217.395386</ele>
        <time>2015-03-28T10:39:27Z</time>
      </trkpt>
      <trkpt lat="43.81816" lon="3.73336">
        <ele>218.356567</ele>
        <time>2015-03-28T10:40:11Z</time>
      </trkpt>
      <trkpt lat="43.81816" lon="3.73336">
        <ele>217.875977</ele>
        <time>2015-03-28T10:40:29Z</time>
      </trkpt>
      <trkpt lat="43.81816" lon="3.73339">
        <ele>218.83728</ele>
        <time>2015-03-28T10:41:10Z</time>
      </trkpt>
      <trkpt lat="43.81815" lon="3.73334">
        <ele>217.875977</ele>
        <time>2015-03-28T10:41:37Z</time>
      </trkpt>
      <trkpt lat="43.81815" lon="3.73338">
        <ele>221.240601</ele>
        <time>2015-03-28T10:42:46Z</time>
      </trkpt>
      <trkpt lat="43.81816" lon="3.73335">
        <ele>217.875977</ele>
        <time>2015-03-28T10:42:52Z</time>
      </trkpt>
      <trkpt lat="43.81815" lon="3.73335">
        <ele>217.875977</ele>
        <time>2015-03-28T10:42:53Z</time>
      </trkpt>
      <trkpt lat="43.81815" lon="3.73335">
        <ele>220.759888</ele>
        <time>2015-03-28T10:42:55Z</time>
      </trkpt>
      <trkpt lat="43.81815" lon="3.73336">
        <ele>215.472656</ele>
        <time>2015-03-28T10:43:00Z</time>
      </trkpt>
      <trkpt lat="43.81815" lon="3.73336">
        <ele>222.201782</ele>
        <time>2015-03-28T10:43:01Z</time>
      </trkpt>
      <trkpt lat="43.81816" lon="3.73336">
        <ele>217.875977</ele>
        <time>2015-03-28T10:43:02Z</time>
      </trkpt>
      <trkpt lat="43.81815" lon="3.73336">
        <ele>221.240601</ele>
        <time>2015-03-28T10:43:08Z</time>
      </trkpt>
      <trkpt lat="43.81811" lon="3.73334">
        <ele>218.83728</ele>
        <time>2015-03-28T10:43:20Z</time>
      </trkpt>
      <trkpt lat="43.81811" lon="3.73337">
        <ele>209.704834</ele>
        <time>2015-03-28T10:43:27Z</time>
      </trkpt>
      <trkpt lat="43.81812" lon="3.73336">
        <ele>222.682495</ele>
        <time>2015-03-28T10:43:28Z</time>
      </trkpt>
      <trkpt lat="43.81816" lon="3.73334">
        <ele>219.798584</ele>
        <time>2015-03-28T10:43:31Z</time>
      </trkpt>
      <trkpt lat="43.81816" lon="3.73335">
        <ele>219.798584</ele>
        <time>2015-03-28T10:43:32Z</time>
      </trkpt>
      <trkpt lat="43.81814" lon="3.73333">
        <ele>219.317993</ele>
        <time>2015-03-28T10:44:15Z</time>
      </trkpt>
      <trkpt lat="43.8182" lon="3.73333">
        <ele>216.914673</ele>
        <time>2015-03-28T10:45:11Z</time>
      </trkpt>
      <trkpt lat="43.81815" lon="3.73335">
        <ele>217.875977</ele>
        <time>2015-03-28T10:46:09Z</time>
      </trkpt>
      <trkpt lat="43.81815" lon="3.73337">
        <ele>218.356567</ele>
        <time>2015-03-28T10:47:12Z</time>
      </trkpt>
      <trkpt lat="43.81816" lon="3.73339">
        <ele>219.317993</ele>
        <time>2015-03-28T10:47:36Z</time>
      </trkpt>
      <trkpt lat="43.81813" lon="3.73342">
        <ele>218.356567</ele>
        <time>2015-03-28T10:47:50Z</time>
      </trkpt>
      <trkpt lat="43.81813" lon="3.73339">
        <ele>224.124512</ele>
        <time>2015-03-28T10:48:03Z</time>
      </trkpt>
      <trkpt lat="43.81813" lon="3.73339">
        <ele>219.317993</ele>
        <time>2015-03-28T10:48:04Z</time>
      </trkpt>
      <trkpt lat="43.81816" lon="3.73341">
        <ele>217.875977</ele>
        <time>2015-03-28T10:48:19Z</time>
      </trkpt>
      <trkpt lat="43.81816" lon="3.73341">
        <ele>224.124512</ele>
        <time>2015-03-28T10:48:20Z</time>
      </trkpt>
      <trkpt lat="43.81815" lon="3.7334">
        <ele>219.317993</ele>
        <time>2015-03-28T10:48:21Z</time>
      </trkpt>
      <trkpt lat="43.81816" lon="3.73342">
        <ele>216.43396</ele>
        <time>2015-03-28T10:48:30Z</time>
      </trkpt>
      <trkpt lat="43.81815" lon="3.73342">
        <ele>217.395386</ele>
        <time>2015-03-28T10:48:31Z</time>
      </trkpt>
      <trkpt lat="43.81815" lon="3.73338">
        <ele>222.682495</ele>
        <time>2015-03-28T10:48:35Z</time>
      </trkpt>
      <trkpt lat="43.81815" lon="3.73337">
        <ele>218.83728</ele>
        <time>2015-03-28T10:48:36Z</time>
      </trkpt>
      <trkpt lat="43.81817" lon="3.73335">
        <ele>213.069336</ele>
        <time>2015-03-28T10:48:43Z</time>
      </trkpt>
      <trkpt lat="43.81817" lon="3.73335">
        <ele>225.085938</ele>
        <time>2015-03-28T10:48:44Z</time>
      </trkpt>
      <trkpt lat="43.81817" lon="3.73336">
        <ele>219.798584</ele>
        <time>2015-03-28T10:48:45Z</time>
      </trkpt>
      <trkpt lat="43.81819" lon="3.73336">
        <ele>212.108032</ele>
        <time>2015-03-28T10:48:51Z</time>
      </trkpt>
      <trkpt lat="43.81819" lon="3.73336">
        <ele>212.108032</ele>
        <time>2015-03-28T10:48:52Z</time>
      </trkpt>
      <trkpt lat="43.81819" lon="3.73336">
        <ele>216.43396</ele>
        <time>2015-03-28T10:48:53Z</time>
      </trkpt>
      <trkpt lat="43.81819" lon="3.73337">
        <ele>226.527832</ele>
        <time>2015-03-28T10:48:54Z</time>
      </trkpt>
      <trkpt lat="43.81819" lon="3.73338">
        <ele>220.759888</ele>
        <time>2015-03-28T10:48:55Z</time>
      </trkpt>
      <trkpt lat="43.81819" lon="3.73338">
        <ele>206.820679</ele>
        <time>2015-03-28T10:48:57Z</time>
      </trkpt>
      <trkpt lat="43.81818" lon="3.73338">
        <ele>225.566528</ele>
        <time>2015-03-28T10:48:58Z</time>
      </trkpt>
      <trkpt lat="43.81818" lon="3.73338">
        <ele>222.201782</ele>
        <time>2015-03-28T10:48:59Z</time>
      </trkpt>
      <trkpt lat="43.81819" lon="3.73338">
        <ele>215.953247</ele>
        <time>2015-03-28T10:49:02Z</time>
      </trkpt>
      <trkpt lat="43.81819" lon="3.73338">
        <ele>221.721191</ele>
        <time>2015-03-28T10:49:03Z</time>
      </trkpt>
      <trkpt lat="43.8182" lon="3.73338">
        <ele>218.356567</ele>
        <time>2015-03-28T10:49:05Z</time>
      </trkpt>
      <trkpt lat="43.81822" lon="3.73342">
        <ele>208.262817</ele>
        <time>2015-03-28T10:49:15Z</time>
      </trkpt>
      <trkpt lat="43.81822" lon="3.73343">
        <ele>223.163208</ele>
        <time>2015-03-28T10:49:16Z</time>
      </trkpt>
      <trkpt lat="43.81822" lon="3.73343">
        <ele>218.356567</ele>
        <time>2015-03-28T10:49:17Z</time>
      </trkpt>
      <trkpt lat="43.81822" lon="3.73343">
        <ele>214.51123</ele>
        <time>2015-03-28T10:49:19Z</time>
      </trkpt>
      <trkpt lat="43.81821" lon="3.73343">
        <ele>217.395386</ele>
        <time>2015-03-28T10:49:20Z</time>
      </trkpt>
      <trkpt lat="43.81823" lon="3.73343">
        <ele>218.356567</ele>
        <time>2015-03-28T10:49:28Z</time>
      </trkpt>
      <trkpt lat="43.81825" lon="3.73338">
        <ele>217.875977</ele>
        <time>2015-03-28T10:49:41Z</time>
      </trkpt>
      <trkpt lat="43.81826" lon="3.73335">
        <ele>218.356567</ele>
        <time>2015-03-28T10:49:46Z</time>
      </trkpt>
      <trkpt lat="43.81829" lon="3.73332">
        <ele>218.356567</ele>
        <time>2015-03-28T10:50:01Z</time>
      </trkpt>
      <trkpt lat="43.81831" lon="3.7333">
        <ele>216.914673</ele>
        <time>2015-03-28T10:50:39Z</time>
      </trkpt>
      <trkpt lat="43.81827" lon="3.73335">
        <ele>216.914673</ele>
        <time>2015-03-28T10:51:26Z</time>
      </trkpt>
      <trkpt lat="43.81822" lon="3.73336">
        <ele>220.279175</ele>
        <time>2015-03-28T10:51:36Z</time>
      </trkpt>
      <trkpt lat="43.8182" lon="3.73336">
        <ele>219.798584</ele>
        <time>2015-03-28T10:51:57Z</time>
      </trkpt>
      <trkpt lat="43.81817" lon="3.73339">
        <ele>224.605225</ele>
        <time>2015-03-28T10:52:28Z</time>
      </trkpt>
      <trkpt lat="43.81817" lon="3.73339">
        <ele>220.279175</ele>
        <time>2015-03-28T10:52:29Z</time>
      </trkpt>
      <trkpt lat="43.81816" lon="3.73339">
        <ele>214.51123</ele>
        <time>2015-03-28T10:52:33Z</time>
      </trkpt>
      <trkpt lat="43.81816" lon="3.73339">
        <ele>224.124512</ele>
        <time>2015-03-28T10:52:34Z</time>
      </trkpt>
      <trkpt lat="43.81816" lon="3.73339">
        <ele>217.875977</ele>
        <time>2015-03-28T10:52:35Z</time>
      </trkpt>
      <trkpt lat="43.81816" lon="3.73338">
        <ele>223.163208</ele>
        <time>2015-03-28T10:52:36Z</time>
      </trkpt>
      <trkpt lat="43.81816" lon="3.73338">
        <ele>219.317993</ele>
        <time>2015-03-28T10:52:37Z</time>
      </trkpt>
      <trkpt lat="43.81815" lon="3.73338">
        <ele>218.83728</ele>
        <time>2015-03-28T10:52:42Z</time>
      </trkpt>
      <trkpt lat="43.81817" lon="3.73337">
        <ele>216.914673</ele>
        <time>2015-03-28T10:53:39Z</time>
      </trkpt>
      <trkpt lat="43.81816" lon="3.73338">
        <ele>220.759888</ele>
        <time>2015-03-28T10:53:41Z</time>
      </trkpt>
      <trkpt lat="43.81816" lon="3.73334">
        <ele>214.991943</ele>
        <time>2015-03-28T10:54:10Z</time>
      </trkpt>
      <trkpt lat="43.81817" lon="3.73334">
        <ele>221.721191</ele>
        <time>2015-03-28T10:54:11Z</time>
      </trkpt>
      <trkpt lat="43.81817" lon="3.73333">
        <ele>218.356567</ele>
        <time>2015-03-28T10:54:13Z</time>
      </trkpt>
      <trkpt lat="43.81817" lon="3.73333">
        <ele>218.83728</ele>
        <time>2015-03-28T10:54:14Z</time>
      </trkpt>
      <trkpt lat="43.81817" lon="3.73333">
        <ele>220.279175</ele>
        <time>2015-03-28T10:54:16Z</time>
      </trkpt>
      <trkpt lat="43.81819" lon="3.73335">
        <ele>220.279175</ele>
        <time>2015-03-28T10:54:37Z</time>
      </trkpt>
      <trkpt lat="43.81816" lon="3.73336">
        <ele>220.279175</ele>
        <time>2015-03-28T10:55:01Z</time>
      </trkpt>
      <trkpt lat="43.81817" lon="3.73339">
        <ele>218.83728</ele>
        <time>2015-03-28T10:55:32Z</time>
      </trkpt>
      <trkpt lat="43.81817" lon="3.73335">
        <ele>219.317993</ele>
        <time>2015-03-28T10:56:47Z</time>
      </trkpt>
      <trkpt lat="43.81811" lon="3.73332">
        <ele>219.317993</ele>
        <time>2015-03-28T10:57:23Z</time>
      </trkpt>
      <trkpt lat="43.81809" lon="3.73328">
        <ele>222.682495</ele>
        <time>2015-03-28T10:57:31Z</time>
      </trkpt>
      <trkpt lat="43.81809" lon="3.73324">
        <ele>219.317993</ele>
        <time>2015-03-28T10:57:36Z</time>
      </trkpt>
      <trkpt lat="43.81812" lon="3.7332">
        <ele>218.356567</ele>
        <time>2015-03-28T10:57:48Z</time>
      </trkpt>
      <trkpt lat="43.81814" lon="3.73318">
        <ele>216.914673</ele>
        <time>2015-03-28T10:58:02Z</time>
      </trkpt>
      <trkpt lat="43.81817" lon="3.73316">
        <ele>215.953247</ele>
        <time>2015-03-28T10:58:15Z</time>
      </trkpt>
      <trkpt lat="43.81817" lon="3.73307">
        <ele>214.03064</ele>
        <time>2015-03-28T10:58:27Z</time>
      </trkpt>
      <trkpt lat="43.81814" lon="3.73299">
        <ele>213.550049</ele>
        <time>2015-03-28T10:58:36Z</time>
      </trkpt>
      <trkpt lat="43.8181" lon="3.73295">
        <ele>212.108032</ele>
        <time>2015-03-28T10:58:42Z</time>
      </trkpt>
      <trkpt lat="43.81806" lon="3.7329">
        <ele>215.953247</ele>
        <time>2015-03-28T10:58:54Z</time>
      </trkpt>
      <trkpt lat="43.81806" lon="3.73289">
        <ele>212.588623</ele>
        <time>2015-03-28T10:58:59Z</time>
      </trkpt>
      <trkpt lat="43.81803" lon="3.73286">
        <ele>214.51123</ele>
        <time>2015-03-28T10:59:18Z</time>
      </trkpt>
      <trkpt lat="43.818" lon="3.73286">
        <ele>218.356567</ele>
        <time>2015-03-28T10:59:23Z</time>
      </trkpt>
      <trkpt lat="43.81799" lon="3.73285">
        <ele>216.43396</ele>
        <time>2015-03-28T10:59:24Z</time>
      </trkpt>
      <trkpt lat="43.81793" lon="3.73283">
        <ele>217.395386</ele>
        <time>2015-03-28T10:59:35Z</time>
      </trkpt>
      <trkpt lat="43.81785" lon="3.73277">
        <ele>218.356567</ele>
        <time>2015-03-28T10:59:50Z</time>
      </trkpt>
      <trkpt lat="43.81779" lon="3.73272">
        <ele>219.317993</ele>
        <time>2015-03-28T11:00:01Z</time>
      </trkpt>
      <trkpt lat="43.81777" lon="3.7327">
        <ele>217.395386</ele>
        <time>2015-03-28T11:00:03Z</time>
      </trkpt>
      <trkpt lat="43.81774" lon="3.73269">
        <ele>219.798584</ele>
        <time>2015-03-28T11:00:07Z</time>
      </trkpt>
      <trkpt lat="43.81772" lon="3.73266">
        <ele>217.875977</ele>
        <time>2015-03-28T11:00:14Z</time>
      </trkpt>
      <trkpt lat="43.8176" lon="3.73252">
        <ele>216.914673</ele>
        <time>2015-03-28T11:00:29Z</time>
      </trkpt>
      <trkpt lat="43.81756" lon="3.73246">
        <ele>217.395386</ele>
        <time>2015-03-28T11:00:42Z</time>
      </trkpt>
      <trkpt lat="43.81751" lon="3.73241">
        <ele>218.356567</ele>
        <time>2015-03-28T11:00:50Z</time>
      </trkpt>
      <trkpt lat="43.81745" lon="3.7324">
        <ele>218.356567</ele>
        <time>2015-03-28T11:01:01Z</time>
      </trkpt>
      <trkpt lat="43.81734" lon="3.73231">
        <ele>218.83728</ele>
        <time>2015-03-28T11:01:14Z</time>
      </trkpt>
      <trkpt lat="43.81729" lon="3.73221">
        <ele>218.83728</ele>
        <time>2015-03-28T11:01:28Z</time>
      </trkpt>
      <trkpt lat="43.81727" lon="3.73217">
        <ele>218.356567</ele>
        <time>2015-03-28T11:01:34Z</time>
      </trkpt>
      <trkpt lat="43.81726" lon="3.73211">
        <ele>217.875977</ele>
        <time>2015-03-28T11:01:49Z</time>
      </trkpt>
      <trkpt lat="43.81724" lon="3.73211">
        <ele>218.356567</ele>
        <time>2015-03-28T11:02:13Z</time>
      </trkpt>
      <trkpt lat="43.8172" lon="3.7321">
        <ele>218.356567</ele>
        <time>2015-03-28T11:02:17Z</time>
      </trkpt>
      <trkpt lat="43.81711" lon="3.73209">
        <ele>218.356567</ele>
        <time>2015-03-28T11:02:31Z</time>
      </trkpt>
      <trkpt lat="43.81702" lon="3.73211">
        <ele>218.356567</ele>
        <time>2015-03-28T11:02:45Z</time>
      </trkpt>
      <trkpt lat="43.81696" lon="3.73203">
        <ele>218.356567</ele>
        <time>2015-03-28T11:02:59Z</time>
      </trkpt>
      <trkpt lat="43.81689" lon="3.73203">
        <ele>218.356567</ele>
        <time>2015-03-28T11:03:13Z</time>
      </trkpt>
      <trkpt lat="43.8169" lon="3.73196">
        <ele>215.953247</ele>
        <time>2015-03-28T11:03:29Z</time>
      </trkpt>
      <trkpt lat="43.81695" lon="3.73192">
        <ele>214.03064</ele>
        <time>2015-03-28T11:03:41Z</time>
      </trkpt>
      <trkpt lat="43.81704" lon="3.73191">
        <ele>211.627441</ele>
        <time>2015-03-28T11:03:54Z</time>
      </trkpt>
      <trkpt lat="43.81707" lon="3.73184">
        <ele>210.666016</ele>
        <time>2015-03-28T11:04:08Z</time>
      </trkpt>
      <trkpt lat="43.81713" lon="3.73178">
        <ele>208.743408</ele>
        <time>2015-03-28T11:04:18Z</time>
      </trkpt>
      <trkpt lat="43.81719" lon="3.73174">
        <ele>208.262817</ele>
        <time>2015-03-28T11:04:36Z</time>
      </trkpt>
      <trkpt lat="43.81727" lon="3.73169">
        <ele>207.301392</ele>
        <time>2015-03-28T11:04:45Z</time>
      </trkpt>
      <trkpt lat="43.81734" lon="3.73163">
        <ele>207.301392</ele>
        <time>2015-03-28T11:04:56Z</time>
      </trkpt>
      <trkpt lat="43.81744" lon="3.73157">
        <ele>204.898071</ele>
        <time>2015-03-28T11:05:08Z</time>
      </trkpt>
      <trkpt lat="43.81751" lon="3.73166">
        <ele>202.014282</ele>
        <time>2015-03-28T11:05:35Z</time>
      </trkpt>
      <trkpt lat="43.81754" lon="3.73166">
        <ele>201.533569</ele>
        <time>2015-03-28T11:05:45Z</time>
      </trkpt>
      <trkpt lat="43.81761" lon="3.73156">
        <ele>198.649536</ele>
        <time>2015-03-28T11:06:20Z</time>
      </trkpt>
      <trkpt lat="43.8176" lon="3.73152">
        <ele>197.688232</ele>
        <time>2015-03-28T11:06:25Z</time>
      </trkpt>
      <trkpt lat="43.81763" lon="3.73155">
        <ele>194.32373</ele>
        <time>2015-03-28T11:06:49Z</time>
      </trkpt>
      <trkpt lat="43.81768" lon="3.73156">
        <ele>192.401123</ele>
        <time>2015-03-28T11:07:02Z</time>
      </trkpt>
      <trkpt lat="43.81766" lon="3.73157">
        <ele>189.516968</ele>
        <time>2015-03-28T11:07:19Z</time>
      </trkpt>
      <trkpt lat="43.81764" lon="3.7316">
        <ele>193.843018</ele>
        <time>2015-03-28T11:07:21Z</time>
      </trkpt>
      <trkpt lat="43.81766" lon="3.73164">
        <ele>197.688232</ele>
        <time>2015-03-28T11:07:32Z</time>
      </trkpt>
      <trkpt lat="43.81766" lon="3.73159">
        <ele>194.32373</ele>
        <time>2015-03-28T11:07:36Z</time>
      </trkpt>
      <trkpt lat="43.8177" lon="3.73164">
        <ele>189.997681</ele>
        <time>2015-03-28T11:07:51Z</time>
      </trkpt>
      <trkpt lat="43.81775" lon="3.73165">
        <ele>189.997681</ele>
        <time>2015-03-28T11:08:14Z</time>
      </trkpt>
      <trkpt lat="43.8178" lon="3.73164">
        <ele>189.036377</ele>
        <time>2015-03-28T11:08:29Z</time>
      </trkpt>
      <trkpt lat="43.8178" lon="3.73153">
        <ele>189.036377</ele>
        <time>2015-03-28T11:08:48Z</time>
      </trkpt>
      <trkpt lat="43.81779" lon="3.73152">
        <ele>186.633179</ele>
        <time>2015-03-28T11:09:01Z</time>
      </trkpt>
      <trkpt lat="43.81779" lon="3.73155">
        <ele>187.11377</ele>
        <time>2015-03-28T11:09:03Z</time>
      </trkpt>
      <trkpt lat="43.81779" lon="3.73164">
        <ele>186.633179</ele>
        <time>2015-03-28T11:09:18Z</time>
      </trkpt>
      <trkpt lat="43.81782" lon="3.73167">
        <ele>184.229858</ele>
        <time>2015-03-28T11:09:35Z</time>
      </trkpt>
      <trkpt lat="43.81785" lon="3.73152">
        <ele>183.268433</ele>
        <time>2015-03-28T11:09:51Z</time>
      </trkpt>
      <trkpt lat="43.81785" lon="3.73152">
        <ele>183.268433</ele>
        <time>2015-03-28T11:09:52Z</time>
      </trkpt>
      <trkpt lat="43.81784" lon="3.7314">
        <ele>181.345825</ele>
        <time>2015-03-28T11:10:02Z</time>
      </trkpt>
      <trkpt lat="43.81788" lon="3.73148">
        <ele>177.50061</ele>
        <time>2015-03-28T11:10:14Z</time>
      </trkpt>
      <trkpt lat="43.81797" lon="3.73148">
        <ele>174.616577</ele>
        <time>2015-03-28T11:10:34Z</time>
      </trkpt>
      <trkpt lat="43.81801" lon="3.73147">
        <ele>171.252075</ele>
        <time>2015-03-28T11:10:46Z</time>
      </trkpt>
      <trkpt lat="43.818" lon="3.73136">
        <ele>169.810059</ele>
        <time>2015-03-28T11:11:09Z</time>
      </trkpt>
      <trkpt lat="43.81799" lon="3.7312">
        <ele>169.329468</ele>
        <time>2015-03-28T11:11:21Z</time>
      </trkpt>
      <trkpt lat="43.81804" lon="3.73107">
        <ele>168.368042</ele>
        <time>2015-03-28T11:11:33Z</time>
      </trkpt>
      <trkpt lat="43.81808" lon="3.73099">
        <ele>167.406738</ele>
        <time>2015-03-28T11:11:42Z</time>
      </trkpt>
      <trkpt lat="43.81819" lon="3.73093">
        <ele>165.484131</ele>
        <time>2015-03-28T11:11:58Z</time>
      </trkpt>
      <trkpt lat="43.81819" lon="3.73093">
        <ele>165.484131</ele>
        <time>2015-03-28T11:11:59Z</time>
      </trkpt>
      <trkpt lat="43.81821" lon="3.73092">
        <ele>163.561523</ele>
        <time>2015-03-28T11:12:02Z</time>
      </trkpt>
      <trkpt lat="43.81821" lon="3.73091">
        <ele>162.119507</ele>
        <time>2015-03-28T11:12:04Z</time>
      </trkpt>
      <trkpt lat="43.81824" lon="3.73096">
        <ele>163.080811</ele>
        <time>2015-03-28T11:12:53Z</time>
      </trkpt>
      <trkpt lat="43.81829" lon="3.73093">
        <ele>159.716187</ele>
        <time>2015-03-28T11:13:06Z</time>
      </trkpt>
      <trkpt lat="43.8183" lon="3.73093">
        <ele>159.716187</ele>
        <time>2015-03-28T11:13:07Z</time>
      </trkpt>
      <trkpt lat="43.81833" lon="3.73092">
        <ele>157.793579</ele>
        <time>2015-03-28T11:13:11Z</time>
      </trkpt>
      <trkpt lat="43.81841" lon="3.73093">
        <ele>154.909546</ele>
        <time>2015-03-28T11:13:24Z</time>
      </trkpt>
      <trkpt lat="43.81854" lon="3.73096">
        <ele>152.986938</ele>
        <time>2015-03-28T11:13:37Z</time>
      </trkpt>
      <trkpt lat="43.81852" lon="3.73104">
        <ele>152.025757</ele>
        <time>2015-03-28T11:13:55Z</time>
      </trkpt>
      <trkpt lat="43.81841" lon="3.73108">
        <ele>151.544922</ele>
        <time>2015-03-28T11:14:10Z</time>
      </trkpt>
      <trkpt lat="43.81836" lon="3.73116">
        <ele>150.583618</ele>
        <time>2015-03-28T11:14:22Z</time>
      </trkpt>
      <trkpt lat="43.81838" lon="3.73117">
        <ele>151.544922</ele>
        <time>2015-03-28T11:14:37Z</time>
      </trkpt>
      <trkpt lat="43.81837" lon="3.73118">
        <ele>150.103027</ele>
        <time>2015-03-28T11:14:40Z</time>
      </trkpt>
      <trkpt lat="43.81834" lon="3.73122">
        <ele>151.064209</ele>
        <time>2015-03-28T11:14:57Z</time>
      </trkpt>
      <trkpt lat="43.81826" lon="3.73119">
        <ele>152.025757</ele>
        <time>2015-03-28T11:15:13Z</time>
      </trkpt>
      <trkpt lat="43.81833" lon="3.73126">
        <ele>152.025757</ele>
        <time>2015-03-28T11:16:32Z</time>
      </trkpt>
      <trkpt lat="43.81843" lon="3.73128">
        <ele>151.064209</ele>
        <time>2015-03-28T11:17:00Z</time>
      </trkpt>
      <trkpt lat="43.81841" lon="3.73126">
        <ele>151.544922</ele>
        <time>2015-03-28T11:17:04Z</time>
      </trkpt>
      <trkpt lat="43.81835" lon="3.73114">
        <ele>150.103027</ele>
        <time>2015-03-28T11:17:20Z</time>
      </trkpt>
      <trkpt lat="43.81841" lon="3.73104">
        <ele>152.506348</ele>
        <time>2015-03-28T11:17:42Z</time>
      </trkpt>
      <trkpt lat="43.81843" lon="3.73103">
        <ele>151.064209</ele>
        <time>2015-03-28T11:17:44Z</time>
      </trkpt>
      <trkpt lat="43.81846" lon="3.73102">
        <ele>152.506348</ele>
        <time>2015-03-28T11:17:47Z</time>
      </trkpt>
      <trkpt lat="43.81848" lon="3.73093">
        <ele>152.506348</ele>
        <time>2015-03-28T11:18:00Z</time>
      </trkpt>
      <trkpt lat="43.81855" lon="3.73101">
        <ele>149.141602</ele>
        <time>2015-03-28T11:18:20Z</time>
      </trkpt>
      <trkpt lat="43.81848" lon="3.73092">
        <ele>152.506348</ele>
        <time>2015-03-28T11:18:48Z</time>
      </trkpt>
      <trkpt lat="43.81846" lon="3.7309">
        <ele>149.141602</ele>
        <time>2015-03-28T11:18:50Z</time>
      </trkpt>
      <trkpt lat="43.81858" lon="3.7309">
        <ele>150.103027</ele>
        <time>2015-03-28T11:19:39Z</time>
      </trkpt>
      <trkpt lat="43.81853" lon="3.73088">
        <ele>151.064209</ele>
        <time>2015-03-28T11:19:59Z</time>
      </trkpt>
      <trkpt lat="43.81853" lon="3.73082">
        <ele>151.064209</ele>
        <time>2015-03-28T11:20:11Z</time>
      </trkpt>
      <trkpt lat="43.81855" lon="3.73078">
        <ele>150.583618</ele>
        <time>2015-03-28T11:20:23Z</time>
      </trkpt>
      <trkpt lat="43.81861" lon="3.73079">
        <ele>152.986938</ele>
        <time>2015-03-28T11:20:36Z</time>
      </trkpt>
      <trkpt lat="43.81861" lon="3.73081">
        <ele>152.506348</ele>
        <time>2015-03-28T11:20:37Z</time>
      </trkpt>
      <trkpt lat="43.81869" lon="3.73095">
        <ele>152.986938</ele>
        <time>2015-03-28T11:20:58Z</time>
      </trkpt>
      <trkpt lat="43.81855" lon="3.73097">
        <ele>152.986938</ele>
        <time>2015-03-28T11:21:39Z</time>
      </trkpt>
      <trkpt lat="43.81857" lon="3.73088">
        <ele>152.025757</ele>
        <time>2015-03-28T11:22:02Z</time>
      </trkpt>
      <trkpt lat="43.81855" lon="3.73071">
        <ele>152.025757</ele>
        <time>2015-03-28T11:22:23Z</time>
      </trkpt>
      <trkpt lat="43.81858" lon="3.73064">
        <ele>152.506348</ele>
        <time>2015-03-28T11:22:38Z</time>
      </trkpt>
      <trkpt lat="43.81864" lon="3.73064">
        <ele>152.986938</ele>
        <time>2015-03-28T11:22:58Z</time>
      </trkpt>
      <trkpt lat="43.81872" lon="3.73071">
        <ele>152.025757</ele>
        <time>2015-03-28T11:23:05Z</time>
      </trkpt>
      <trkpt lat="43.81874" lon="3.73067">
        <ele>151.064209</ele>
        <time>2015-03-28T11:23:20Z</time>
      </trkpt>
      <trkpt lat="43.81878" lon="3.7307">
        <ele>148.18042</ele>
        <time>2015-03-28T11:23:28Z</time>
      </trkpt>
      <trkpt lat="43.81878" lon="3.73071">
        <ele>153.948364</ele>
        <time>2015-03-28T11:23:29Z</time>
      </trkpt>
      <trkpt lat="43.81877" lon="3.73071">
        <ele>151.064209</ele>
        <time>2015-03-28T11:23:32Z</time>
      </trkpt>
      <trkpt lat="43.81884" lon="3.73071">
        <ele>149.622314</ele>
        <time>2015-03-28T11:24:04Z</time>
      </trkpt>
      <trkpt lat="43.81887" lon="3.73067">
        <ele>146.738403</ele>
        <time>2015-03-28T11:24:17Z</time>
      </trkpt>
      <trkpt lat="43.81887" lon="3.73067">
        <ele>146.738403</ele>
        <time>2015-03-28T11:24:18Z</time>
      </trkpt>
      <trkpt lat="43.81888" lon="3.73067">
        <ele>148.661011</ele>
        <time>2015-03-28T11:24:20Z</time>
      </trkpt>
      <trkpt lat="43.81885" lon="3.73067">
        <ele>153.467651</ele>
        <time>2015-03-28T11:24:32Z</time>
      </trkpt>
      <trkpt lat="43.81885" lon="3.73068">
        <ele>149.622314</ele>
        <time>2015-03-28T11:24:33Z</time>
      </trkpt>
      <trkpt lat="43.81884" lon="3.7307">
        <ele>146.257812</ele>
        <time>2015-03-28T11:24:35Z</time>
      </trkpt>
      <trkpt lat="43.81883" lon="3.73071">
        <ele>149.141602</ele>
        <time>2015-03-28T11:24:37Z</time>
      </trkpt>
      <trkpt lat="43.81887" lon="3.73054">
        <ele>148.661011</ele>
        <time>2015-03-28T11:25:01Z</time>
      </trkpt>
      <trkpt lat="43.81889" lon="3.73039">
        <ele>152.986938</ele>
        <time>2015-03-28T11:25:33Z</time>
      </trkpt>
      <trkpt lat="43.81889" lon="3.73038">
        <ele>151.544922</ele>
        <time>2015-03-28T11:25:34Z</time>
      </trkpt>
      <trkpt lat="43.81889" lon="3.73035">
        <ele>156.351562</ele>
        <time>2015-03-28T11:25:42Z</time>
      </trkpt>
      <trkpt lat="43.81889" lon="3.73036">
        <ele>154.909546</ele>
        <time>2015-03-28T11:25:43Z</time>
      </trkpt>
      <trkpt lat="43.81894" lon="3.73038">
        <ele>158.754761</ele>
        <time>2015-03-28T11:25:50Z</time>
      </trkpt>
      <trkpt lat="43.81893" lon="3.73035">
        <ele>159.235474</ele>
        <time>2015-03-28T11:25:52Z</time>
      </trkpt>
      <trkpt lat="43.81895" lon="3.73031">
        <ele>160.67749</ele>
        <time>2015-03-28T11:26:04Z</time>
      </trkpt>
      <trkpt lat="43.819" lon="3.73034">
        <ele>160.196899</ele>
        <time>2015-03-28T11:26:12Z</time>
      </trkpt>
      <trkpt lat="43.819" lon="3.73017">
        <ele>159.716187</ele>
        <time>2015-03-28T11:26:22Z</time>
      </trkpt>
      <trkpt lat="43.81902" lon="3.73009">
        <ele>160.196899</ele>
        <time>2015-03-28T11:26:33Z</time>
      </trkpt>
      <trkpt lat="43.81908" lon="3.73016">
        <ele>159.716187</ele>
        <time>2015-03-28T11:26:53Z</time>
      </trkpt>
      <trkpt lat="43.81911" lon="3.73009">
        <ele>164.042114</ele>
        <time>2015-03-28T11:27:02Z</time>
      </trkpt>
      <trkpt lat="43.81911" lon="3.73">
        <ele>164.042114</ele>
        <time>2015-03-28T11:27:09Z</time>
      </trkpt>
      <trkpt lat="43.81915" lon="3.7299">
        <ele>166.445312</ele>
        <time>2015-03-28T11:27:25Z</time>
      </trkpt>
      <trkpt lat="43.81921" lon="3.7299">
        <ele>163.080811</ele>
        <time>2015-03-28T11:27:50Z</time>
      </trkpt>
      <trkpt lat="43.81923" lon="3.72994">
        <ele>160.67749</ele>
        <time>2015-03-28T11:28:00Z</time>
      </trkpt>
      <trkpt lat="43.81929" lon="3.73002">
        <ele>160.196899</ele>
        <time>2015-03-28T11:28:17Z</time>
      </trkpt>
      <trkpt lat="43.81928" lon="3.72994">
        <ele>159.235474</ele>
        <time>2015-03-28T11:28:44Z</time>
      </trkpt>
      <trkpt lat="43.81929" lon="3.72986">
        <ele>159.716187</ele>
        <time>2015-03-28T11:28:53Z</time>
      </trkpt>
      <trkpt lat="43.81928" lon="3.72976">
        <ele>157.793579</ele>
        <time>2015-03-28T11:29:05Z</time>
      </trkpt>
      <trkpt lat="43.81934" lon="3.72973">
        <ele>157.312866</ele>
        <time>2015-03-28T11:29:18Z</time>
      </trkpt>
      <trkpt lat="43.81936" lon="3.72974">
        <ele>153.948364</ele>
        <time>2015-03-28T11:29:24Z</time>
      </trkpt>
      <trkpt lat="43.81938" lon="3.72977">
        <ele>152.986938</ele>
        <time>2015-03-28T11:29:32Z</time>
      </trkpt>
      <trkpt lat="43.81938" lon="3.72977">
        <ele>149.622314</ele>
        <time>2015-03-28T11:29:33Z</time>
      </trkpt>
      <trkpt lat="43.81937" lon="3.72977">
        <ele>154.909546</ele>
        <time>2015-03-28T11:29:34Z</time>
      </trkpt>
      <trkpt lat="43.81937" lon="3.72976">
        <ele>151.064209</ele>
        <time>2015-03-28T11:29:35Z</time>
      </trkpt>
      <trkpt lat="43.81938" lon="3.72975">
        <ele>146.257812</ele>
        <time>2015-03-28T11:29:37Z</time>
      </trkpt>
      <trkpt lat="43.81938" lon="3.72975">
        <ele>153.948364</ele>
        <time>2015-03-28T11:29:38Z</time>
      </trkpt>
      <trkpt lat="43.81938" lon="3.72976">
        <ele>148.661011</ele>
        <time>2015-03-28T11:29:39Z</time>
      </trkpt>
      <trkpt lat="43.8194" lon="3.72976">
        <ele>147.699707</ele>
        <time>2015-03-28T11:29:42Z</time>
      </trkpt>
      <trkpt lat="43.81949" lon="3.72981">
        <ele>147.218994</ele>
        <time>2015-03-28T11:30:02Z</time>
      </trkpt>
      <trkpt lat="43.81949" lon="3.72979">
        <ele>148.661011</ele>
        <time>2015-03-28T11:30:05Z</time>
      </trkpt>
      <trkpt lat="43.81951" lon="3.72966">
        <ele>148.18042</ele>
        <time>2015-03-28T11:30:28Z</time>
      </trkpt>
      <trkpt lat="43.81956" lon="3.72965">
        <ele>147.699707</ele>
        <time>2015-03-28T11:30:44Z</time>
      </trkpt>
      <trkpt lat="43.8196" lon="3.72957">
        <ele>150.103027</ele>
        <time>2015-03-28T11:30:53Z</time>
      </trkpt>
      <trkpt lat="43.81966" lon="3.72954">
        <ele>148.18042</ele>
        <time>2015-03-28T11:31:05Z</time>
      </trkpt>
      <trkpt lat="43.81971" lon="3.72958">
        <ele>147.218994</ele>
        <time>2015-03-28T11:31:21Z</time>
      </trkpt>
      <trkpt lat="43.81976" lon="3.72952">
        <ele>146.257812</ele>
        <time>2015-03-28T11:31:36Z</time>
      </trkpt>
      <trkpt lat="43.81981" lon="3.72951">
        <ele>143.85437</ele>
        <time>2015-03-28T11:32:14Z</time>
      </trkpt>
      <trkpt lat="43.81983" lon="3.72949">
        <ele>143.85437</ele>
        <time>2015-03-28T11:32:31Z</time>
      </trkpt>
      <trkpt lat="43.81981" lon="3.72944">
        <ele>143.85437</ele>
        <time>2015-03-28T11:33:05Z</time>
      </trkpt>
      <trkpt lat="43.81982" lon="3.72946">
        <ele>139.528442</ele>
        <time>2015-03-28T11:33:34Z</time>
      </trkpt>
      <trkpt lat="43.81982" lon="3.72946">
        <ele>142.412476</ele>
        <time>2015-03-28T11:33:35Z</time>
      </trkpt>
      <trkpt lat="43.81982" lon="3.72946">
        <ele>150.103027</ele>
        <time>2015-03-28T11:33:36Z</time>
      </trkpt>
      <trkpt lat="43.81983" lon="3.72945">
        <ele>146.257812</ele>
        <time>2015-03-28T11:33:37Z</time>
      </trkpt>
      <trkpt lat="43.81986" lon="3.72944">
        <ele>142.412476</ele>
        <time>2015-03-28T11:33:42Z</time>
      </trkpt>
      <trkpt lat="43.81985" lon="3.72944">
        <ele>142.412476</ele>
        <time>2015-03-28T11:33:43Z</time>
      </trkpt>
      <trkpt lat="43.81987" lon="3.72946">
        <ele>146.738403</ele>
        <time>2015-03-28T11:33:46Z</time>
      </trkpt>
      <trkpt lat="43.81987" lon="3.72946">
        <ele>151.064209</ele>
        <time>2015-03-28T11:33:47Z</time>
      </trkpt>
      <trkpt lat="43.81988" lon="3.72947">
        <ele>146.738403</ele>
        <time>2015-03-28T11:33:48Z</time>
      </trkpt>
      <trkpt lat="43.81987" lon="3.7296">
        <ele>147.218994</ele>
        <time>2015-03-28T11:34:12Z</time>
      </trkpt>
      <trkpt lat="43.8198" lon="3.72962">
        <ele>145.7771</ele>
        <time>2015-03-28T11:34:25Z</time>
      </trkpt>
      <trkpt lat="43.81977" lon="3.72972">
        <ele>148.661011</ele>
        <time>2015-03-28T11:34:36Z</time>
      </trkpt>
      <trkpt lat="43.81977" lon="3.72975">
        <ele>151.544922</ele>
        <time>2015-03-28T11:35:02Z</time>
      </trkpt>
      <trkpt lat="43.81976" lon="3.72975">
        <ele>151.544922</ele>
        <time>2015-03-28T11:35:03Z</time>
      </trkpt>
      <trkpt lat="43.81982" lon="3.72984">
        <ele>154.428955</ele>
        <time>2015-03-28T11:35:14Z</time>
      </trkpt>
      <trkpt lat="43.81982" lon="3.72985">
        <ele>157.793579</ele>
        <time>2015-03-28T11:35:16Z</time>
      </trkpt>
      <trkpt lat="43.81982" lon="3.72985">
        <ele>156.832153</ele>
        <time>2015-03-28T11:35:17Z</time>
      </trkpt>
      <trkpt lat="43.81982" lon="3.72985">
        <ele>154.909546</ele>
        <time>2015-03-28T11:35:19Z</time>
      </trkpt>
      <trkpt lat="43.81983" lon="3.72985">
        <ele>156.832153</ele>
        <time>2015-03-28T11:35:21Z</time>
      </trkpt>
      <trkpt lat="43.81982" lon="3.72985">
        <ele>160.196899</ele>
        <time>2015-03-28T11:35:28Z</time>
      </trkpt>
      <trkpt lat="43.81981" lon="3.72991">
        <ele>162.119507</ele>
        <time>2015-03-28T11:35:39Z</time>
      </trkpt>
      <trkpt lat="43.81981" lon="3.72999">
        <ele>163.080811</ele>
        <time>2015-03-28T11:35:52Z</time>
      </trkpt>
      <trkpt lat="43.81981" lon="3.73008">
        <ele>164.042114</ele>
        <time>2015-03-28T11:36:13Z</time>
      </trkpt>
      <trkpt lat="43.81978" lon="3.73013">
        <ele>167.887329</ele>
        <time>2015-03-28T11:36:30Z</time>
      </trkpt>
      <trkpt lat="43.81983" lon="3.73025">
        <ele>169.329468</ele>
        <time>2015-03-28T11:37:03Z</time>
      </trkpt>
      <trkpt lat="43.81985" lon="3.73025">
        <ele>168.848755</ele>
        <time>2015-03-28T11:37:33Z</time>
      </trkpt>
      <trkpt lat="43.81993" lon="3.73028">
        <ele>168.368042</ele>
        <time>2015-03-28T11:37:56Z</time>
      </trkpt>
      <trkpt lat="43.8199" lon="3.73028">
        <ele>172.213257</ele>
        <time>2015-03-28T11:38:01Z</time>
      </trkpt>
      <trkpt lat="43.81986" lon="3.73029">
        <ele>177.02002</ele>
        <time>2015-03-28T11:38:13Z</time>
      </trkpt>
      <trkpt lat="43.81983" lon="3.7304">
        <ele>179.903809</ele>
        <time>2015-03-28T11:38:35Z</time>
      </trkpt>
      <trkpt lat="43.81984" lon="3.73042">
        <ele>180.865234</ele>
        <time>2015-03-28T11:38:53Z</time>
      </trkpt>
      <trkpt lat="43.81983" lon="3.73048">
        <ele>183.749023</ele>
        <time>2015-03-28T11:39:07Z</time>
      </trkpt>
      <trkpt lat="43.81978" lon="3.7304">
        <ele>185.671753</ele>
        <time>2015-03-28T11:39:30Z</time>
      </trkpt>
      <trkpt lat="43.81977" lon="3.73036">
        <ele>185.671753</ele>
        <time>2015-03-28T11:39:51Z</time>
      </trkpt>
      <trkpt lat="43.8198" lon="3.73034">
        <ele>184.710571</ele>
        <time>2015-03-28T11:40:07Z</time>
      </trkpt>
      <trkpt lat="43.81987" lon="3.73037">
        <ele>181.345825</ele>
        <time>2015-03-28T11:40:23Z</time>
      </trkpt>
      <trkpt lat="43.81991" lon="3.73024">
        <ele>182.307129</ele>
        <time>2015-03-28T11:40:45Z</time>
      </trkpt>
      <trkpt lat="43.81994" lon="3.73025">
        <ele>183.749023</ele>
        <time>2015-03-28T11:40:51Z</time>
      </trkpt>
      <trkpt lat="43.81991" lon="3.73029">
        <ele>181.826416</ele>
        <time>2015-03-28T11:40:58Z</time>
      </trkpt>
      <trkpt lat="43.8199" lon="3.73038">
        <ele>181.345825</ele>
        <time>2015-03-28T11:41:12Z</time>
      </trkpt>
      <trkpt lat="43.81985" lon="3.73052">
        <ele>185.191162</ele>
        <time>2015-03-28T11:41:30Z</time>
      </trkpt>
      <trkpt lat="43.8198" lon="3.73063">
        <ele>186.633179</ele>
        <time>2015-03-28T11:41:51Z</time>
      </trkpt>
      <trkpt lat="43.81976" lon="3.73065">
        <ele>189.997681</ele>
        <time>2015-03-28T11:42:25Z</time>
      </trkpt>
      <trkpt lat="43.81983" lon="3.73079">
        <ele>193.843018</ele>
        <time>2015-03-28T11:42:40Z</time>
      </trkpt>
      <trkpt lat="43.81983" lon="3.7308">
        <ele>193.843018</ele>
        <time>2015-03-28T11:42:44Z</time>
      </trkpt>
      <trkpt lat="43.81985" lon="3.73087">
        <ele>196.726929</ele>
        <time>2015-03-28T11:43:15Z</time>
      </trkpt>
      <trkpt lat="43.81986" lon="3.73095">
        <ele>197.688232</ele>
        <time>2015-03-28T11:43:29Z</time>
      </trkpt>
      <trkpt lat="43.81986" lon="3.73096">
        <ele>202.014282</ele>
        <time>2015-03-28T11:43:41Z</time>
      </trkpt>
      <trkpt lat="43.81986" lon="3.73096">
        <ele>202.014282</ele>
        <time>2015-03-28T11:43:42Z</time>
      </trkpt>
      <trkpt lat="43.81985" lon="3.73098">
        <ele>202.975464</ele>
        <time>2015-03-28T11:43:50Z</time>
      </trkpt>
      <trkpt lat="43.81977" lon="3.731">
        <ele>204.898071</ele>
        <time>2015-03-28T11:44:06Z</time>
      </trkpt>
      <trkpt lat="43.81971" lon="3.73104">
        <ele>208.262817</ele>
        <time>2015-03-28T11:44:21Z</time>
      </trkpt>
      <trkpt lat="43.81971" lon="3.73111">
        <ele>208.262817</ele>
        <time>2015-03-28T11:44:35Z</time>
      </trkpt>
      <trkpt lat="43.81973" lon="3.73113">
        <ele>210.185425</ele>
        <time>2015-03-28T11:44:38Z</time>
      </trkpt>
      <trkpt lat="43.81976" lon="3.73118">
        <ele>211.627441</ele>
        <time>2015-03-28T11:44:43Z</time>
      </trkpt>
      <trkpt lat="43.81978" lon="3.73124">
        <ele>214.991943</ele>
        <time>2015-03-28T11:44:53Z</time>
      </trkpt>
      <trkpt lat="43.81983" lon="3.73134">
        <ele>216.43396</ele>
        <time>2015-03-28T11:45:06Z</time>
      </trkpt>
      <trkpt lat="43.8198" lon="3.73134">
        <ele>216.43396</ele>
        <time>2015-03-28T11:45:25Z</time>
      </trkpt>
      <trkpt lat="43.8198" lon="3.73143">
        <ele>216.914673</ele>
        <time>2015-03-28T11:45:37Z</time>
      </trkpt>
      <trkpt lat="43.81983" lon="3.73154">
        <ele>219.317993</ele>
        <time>2015-03-28T11:45:49Z</time>
      </trkpt>
      <trkpt lat="43.81983" lon="3.73163">
        <ele>222.682495</ele>
        <time>2015-03-28T11:46:00Z</time>
      </trkpt>
      <trkpt lat="43.81983" lon="3.73168">
        <ele>226.047119</ele>
        <time>2015-03-28T11:46:13Z</time>
      </trkpt>
      <trkpt lat="43.81981" lon="3.7318">
        <ele>227.489136</ele>
        <time>2015-03-28T11:46:25Z</time>
      </trkpt>
      <trkpt lat="43.81977" lon="3.73185">
        <ele>227.008545</ele>
        <time>2015-03-28T11:46:42Z</time>
      </trkpt>
      <trkpt lat="43.81979" lon="3.73194">
        <ele>229.892334</ele>
        <time>2015-03-28T11:47:02Z</time>
      </trkpt>
      <trkpt lat="43.81984" lon="3.73199">
        <ele>231.814941</ele>
        <time>2015-03-28T11:47:14Z</time>
      </trkpt>
      <trkpt lat="43.81988" lon="3.73208">
        <ele>232.295776</ele>
        <time>2015-03-28T11:47:27Z</time>
      </trkpt>
      <trkpt lat="43.81985" lon="3.73213">
        <ele>230.85376</ele>
        <time>2015-03-28T11:47:47Z</time>
      </trkpt>
      <trkpt lat="43.81986" lon="3.73215">
        <ele>231.334351</ele>
        <time>2015-03-28T11:48:15Z</time>
      </trkpt>
      <trkpt lat="43.81983" lon="3.73212">
        <ele>231.334351</ele>
        <time>2015-03-28T11:48:42Z</time>
      </trkpt>
      <trkpt lat="43.81982" lon="3.73208">
        <ele>231.334351</ele>
        <time>2015-03-28T11:49:16Z</time>
      </trkpt>
      <trkpt lat="43.81986" lon="3.73207">
        <ele>234.218384</ele>
        <time>2015-03-28T11:49:30Z</time>
      </trkpt>
      <trkpt lat="43.81996" lon="3.73212">
        <ele>236.621704</ele>
        <time>2015-03-28T11:49:44Z</time>
      </trkpt>
      <trkpt lat="43.81999" lon="3.73224">
        <ele>237.102295</ele>
        <time>2015-03-28T11:50:09Z</time>
      </trkpt>
      <trkpt lat="43.81999" lon="3.73223">
        <ele>237.582886</ele>
        <time>2015-03-28T11:50:15Z</time>
      </trkpt>
      <trkpt lat="43.81997" lon="3.73227">
        <ele>237.102295</ele>
        <time>2015-03-28T11:50:45Z</time>
      </trkpt>
      <trkpt lat="43.81998" lon="3.73238">
        <ele>236.621704</ele>
        <time>2015-03-28T11:51:05Z</time>
      </trkpt>
      <trkpt lat="43.82" lon="3.73238">
        <ele>237.102295</ele>
        <time>2015-03-28T11:51:19Z</time>
      </trkpt>
      <trkpt lat="43.82" lon="3.73232">
        <ele>236.621704</ele>
        <time>2015-03-28T11:51:32Z</time>
      </trkpt>
      <trkpt lat="43.82001" lon="3.73222">
        <ele>236.621704</ele>
        <time>2015-03-28T11:51:41Z</time>
      </trkpt>
      <trkpt lat="43.8201" lon="3.73228">
        <ele>237.582886</ele>
        <time>2015-03-28T11:51:49Z</time>
      </trkpt>
      <trkpt lat="43.82021" lon="3.73238">
        <ele>238.544312</ele>
        <time>2015-03-28T11:52:03Z</time>
      </trkpt>
      <trkpt lat="43.82021" lon="3.73239">
        <ele>239.024902</ele>
        <time>2015-03-28T11:52:05Z</time>
      </trkpt>
      <trkpt lat="43.82022" lon="3.73244">
        <ele>240.467041</ele>
        <time>2015-03-28T11:52:10Z</time>
      </trkpt>
      <trkpt lat="43.82022" lon="3.73244">
        <ele>243.831543</ele>
        <time>2015-03-28T11:52:13Z</time>
      </trkpt>
      <trkpt lat="43.82022" lon="3.73244">
        <ele>239.505493</ele>
        <time>2015-03-28T11:52:14Z</time>
      </trkpt>
      <trkpt lat="43.82021" lon="3.73244">
        <ele>238.063599</ele>
        <time>2015-03-28T11:52:16Z</time>
      </trkpt>
      <trkpt lat="43.8202" lon="3.73246">
        <ele>240.467041</ele>
        <time>2015-03-28T11:52:29Z</time>
      </trkpt>
      <trkpt lat="43.82022" lon="3.7325">
        <ele>239.505493</ele>
        <time>2015-03-28T11:52:35Z</time>
      </trkpt>
      <trkpt lat="43.82022" lon="3.73252">
        <ele>240.947632</ele>
        <time>2015-03-28T11:52:37Z</time>
      </trkpt>
      <trkpt lat="43.82021" lon="3.73255">
        <ele>240.467041</ele>
        <time>2015-03-28T11:52:39Z</time>
      </trkpt>
      <trkpt lat="43.82024" lon="3.73263">
        <ele>243.35083</ele>
        <time>2015-03-28T11:52:46Z</time>
      </trkpt>
      <trkpt lat="43.82025" lon="3.7328">
        <ele>243.35083</ele>
        <time>2015-03-28T11:52:58Z</time>
      </trkpt>
      <trkpt lat="43.82027" lon="3.73293">
        <ele>243.35083</ele>
        <time>2015-03-28T11:53:10Z</time>
      </trkpt>
      <trkpt lat="43.82033" lon="3.73287">
        <ele>245.75415</ele>
        <time>2015-03-28T11:53:22Z</time>
      </trkpt>
      <trkpt lat="43.82035" lon="3.73283">
        <ele>246.234863</ele>
        <time>2015-03-28T11:53:27Z</time>
      </trkpt>
      <trkpt lat="43.82044" lon="3.7327">
        <ele>247.196045</ele>
        <time>2015-03-28T11:53:42Z</time>
      </trkpt>
      <trkpt lat="43.82049" lon="3.73271">
        <ele>247.196045</ele>
        <time>2015-03-28T11:53:46Z</time>
      </trkpt>
      <trkpt lat="43.82058" lon="3.7328">
        <ele>249.118774</ele>
        <time>2015-03-28T11:54:00Z</time>
      </trkpt>
      <trkpt lat="43.82061" lon="3.73286">
        <ele>250.560791</ele>
        <time>2015-03-28T11:54:12Z</time>
      </trkpt>
      <trkpt lat="43.82062" lon="3.73292">
        <ele>248.638184</ele>
        <time>2015-03-28T11:54:40Z</time>
      </trkpt>
      <trkpt lat="43.82066" lon="3.73299">
        <ele>250.560791</ele>
        <time>2015-03-28T11:54:47Z</time>
      </trkpt>
      <trkpt lat="43.82062" lon="3.73308">
        <ele>250.0802</ele>
        <time>2015-03-28T11:54:59Z</time>
      </trkpt>
      <trkpt lat="43.82059" lon="3.73316">
        <ele>252.963989</ele>
        <time>2015-03-28T11:55:07Z</time>
      </trkpt>
      <trkpt lat="43.82058" lon="3.73317">
        <ele>252.002808</ele>
        <time>2015-03-28T11:55:08Z</time>
      </trkpt>
      <trkpt lat="43.82052" lon="3.73328">
        <ele>253.925415</ele>
        <time>2015-03-28T11:55:21Z</time>
      </trkpt>
      <trkpt lat="43.82044" lon="3.73346">
        <ele>252.963989</ele>
        <time>2015-03-28T11:55:36Z</time>
      </trkpt>
      <trkpt lat="43.8204" lon="3.73356">
        <ele>252.963989</ele>
        <time>2015-03-28T11:55:48Z</time>
      </trkpt>
      <trkpt lat="43.8204" lon="3.73358">
        <ele>254.406006</ele>
        <time>2015-03-28T11:55:50Z</time>
      </trkpt>
      <trkpt lat="43.82036" lon="3.73377">
        <ele>255.848022</ele>
        <time>2015-03-28T11:56:07Z</time>
      </trkpt>
      <trkpt lat="43.82031" lon="3.73385">
        <ele>252.483398</ele>
        <time>2015-03-28T11:56:18Z</time>
      </trkpt>
      <trkpt lat="43.82029" lon="3.73389">
        <ele>251.522095</ele>
        <time>2015-03-28T11:56:26Z</time>
      </trkpt>
      <trkpt lat="43.82024" lon="3.73389">
        <ele>248.157593</ele>
        <time>2015-03-28T11:56:36Z</time>
      </trkpt>
      <trkpt lat="43.82018" lon="3.73394">
        <ele>247.196045</ele>
        <time>2015-03-28T11:56:50Z</time>
      </trkpt>
      <trkpt lat="43.82014" lon="3.73404">
        <ele>244.792847</ele>
        <time>2015-03-28T11:57:09Z</time>
      </trkpt>
      <trkpt lat="43.82008" lon="3.7341">
        <ele>240.947632</ele>
        <time>2015-03-28T11:57:25Z</time>
      </trkpt>
      <trkpt lat="43.82008" lon="3.73423">
        <ele>241.428223</ele>
        <time>2015-03-28T11:57:36Z</time>
      </trkpt>
      <trkpt lat="43.82006" lon="3.73424">
        <ele>242.389648</ele>
        <time>2015-03-28T11:57:50Z</time>
      </trkpt>
      <trkpt lat="43.82007" lon="3.7341">
        <ele>243.35083</ele>
        <time>2015-03-28T11:58:01Z</time>
      </trkpt>
      <trkpt lat="43.8201" lon="3.73395">
        <ele>240.947632</ele>
        <time>2015-03-28T11:58:15Z</time>
      </trkpt>
      <trkpt lat="43.82004" lon="3.73382">
        <ele>237.102295</ele>
        <time>2015-03-28T11:58:32Z</time>
      </trkpt>
      <trkpt lat="43.82004" lon="3.73381">
        <ele>237.582886</ele>
        <time>2015-03-28T11:58:33Z</time>
      </trkpt>
      <trkpt lat="43.82003" lon="3.73381">
        <ele>236.140991</ele>
        <time>2015-03-28T11:58:36Z</time>
      </trkpt>
      <trkpt lat="43.82" lon="3.73384">
        <ele>233.737671</ele>
        <time>2015-03-28T11:58:47Z</time>
      </trkpt>
      <trkpt lat="43.81996" lon="3.73386">
        <ele>231.814941</ele>
        <time>2015-03-28T11:58:53Z</time>
      </trkpt>
      <trkpt lat="43.81993" lon="3.73386">
        <ele>229.892334</ele>
        <time>2015-03-28T11:58:57Z</time>
      </trkpt>
      <trkpt lat="43.81992" lon="3.73388">
        <ele>229.411743</ele>
        <time>2015-03-28T11:59:01Z</time>
      </trkpt>
      <trkpt lat="43.8199" lon="3.73396">
        <ele>229.411743</ele>
        <time>2015-03-28T11:59:09Z</time>
      </trkpt>
      <trkpt lat="43.8199" lon="3.73405">
        <ele>232.776489</ele>
        <time>2015-03-28T11:59:22Z</time>
      </trkpt>
      <trkpt lat="43.81994" lon="3.73412">
        <ele>234.218384</ele>
        <time>2015-03-28T11:59:49Z</time>
      </trkpt>
      <trkpt lat="43.81999" lon="3.73417">
        <ele>236.140991</ele>
        <time>2015-03-28T12:00:13Z</time>
      </trkpt>
      <trkpt lat="43.81998" lon="3.73417">
        <ele>237.582886</ele>
        <time>2015-03-28T12:00:17Z</time>
      </trkpt>
      <trkpt lat="43.81997" lon="3.73418">
        <ele>238.063599</ele>
        <time>2015-03-28T12:00:40Z</time>
      </trkpt>
      <trkpt lat="43.82001" lon="3.73424">
        <ele>239.024902</ele>
        <time>2015-03-28T12:00:58Z</time>
      </trkpt>
      <trkpt lat="43.82002" lon="3.73425">
        <ele>240.467041</ele>
        <time>2015-03-28T12:01:00Z</time>
      </trkpt>
      <trkpt lat="43.82001" lon="3.7344">
        <ele>241.428223</ele>
        <time>2015-03-28T12:01:27Z</time>
      </trkpt>
      <trkpt lat="43.81995" lon="3.73451">
        <ele>239.024902</ele>
        <time>2015-03-28T12:01:39Z</time>
      </trkpt>
      <trkpt lat="43.81992" lon="3.73461">
        <ele>237.102295</ele>
        <time>2015-03-28T12:01:49Z</time>
      </trkpt>
      <trkpt lat="43.81991" lon="3.7347">
        <ele>236.140991</ele>
        <time>2015-03-28T12:02:16Z</time>
      </trkpt>
      <trkpt lat="43.81984" lon="3.73476">
        <ele>232.776489</ele>
        <time>2015-03-28T12:02:27Z</time>
      </trkpt>
      <trkpt lat="43.81978" lon="3.73488">
        <ele>231.334351</ele>
        <time>2015-03-28T12:02:40Z</time>
      </trkpt>
      <trkpt lat="43.81972" lon="3.73491">
        <ele>227.969727</ele>
        <time>2015-03-28T12:02:51Z</time>
      </trkpt>
      <trkpt lat="43.8197" lon="3.73494">
        <ele>226.527832</ele>
        <time>2015-03-28T12:03:00Z</time>
      </trkpt>
      <trkpt lat="43.81962" lon="3.73513">
        <ele>226.527832</ele>
        <time>2015-03-28T12:03:17Z</time>
      </trkpt>
      <trkpt lat="43.8196" lon="3.73518">
        <ele>226.047119</ele>
        <time>2015-03-28T12:03:34Z</time>
      </trkpt>
      <trkpt lat="43.81958" lon="3.73521">
        <ele>224.605225</ele>
        <time>2015-03-28T12:03:45Z</time>
      </trkpt>
      <trkpt lat="43.81955" lon="3.73525">
        <ele>224.605225</ele>
        <time>2015-03-28T12:03:53Z</time>
      </trkpt>
      <trkpt lat="43.81953" lon="3.73528">
        <ele>223.643799</ele>
        <time>2015-03-28T12:03:57Z</time>
      </trkpt>
      <trkpt lat="43.81949" lon="3.73529">
        <ele>221.240601</ele>
        <time>2015-03-28T12:04:12Z</time>
      </trkpt>
      <trkpt lat="43.81946" lon="3.73543">
        <ele>218.356567</ele>
        <time>2015-03-28T12:04:24Z</time>
      </trkpt>
      <trkpt lat="43.81944" lon="3.73553">
        <ele>215.953247</ele>
        <time>2015-03-28T12:04:37Z</time>
      </trkpt>
      <trkpt lat="43.81941" lon="3.73554">
        <ele>215.953247</ele>
        <time>2015-03-28T12:05:24Z</time>
      </trkpt>
      <trkpt lat="43.81939" lon="3.73551">
        <ele>213.550049</ele>
        <time>2015-03-28T12:06:22Z</time>
      </trkpt>
      <trkpt lat="43.81941" lon="3.73564">
        <ele>210.185425</ele>
        <time>2015-03-28T12:06:31Z</time>
      </trkpt>
      <trkpt lat="43.81938" lon="3.73575">
        <ele>210.666016</ele>
        <time>2015-03-28T12:06:50Z</time>
      </trkpt>
      <trkpt lat="43.81943" lon="3.73579">
        <ele>209.224121</ele>
        <time>2015-03-28T12:07:11Z</time>
      </trkpt>
      <trkpt lat="43.81944" lon="3.73592">
        <ele>208.743408</ele>
        <time>2015-03-28T12:07:31Z</time>
      </trkpt>
      <trkpt lat="43.81949" lon="3.73593">
        <ele>206.820679</ele>
        <time>2015-03-28T12:07:47Z</time>
      </trkpt>
      <trkpt lat="43.81951" lon="3.736">
        <ele>205.859497</ele>
        <time>2015-03-28T12:08:00Z</time>
      </trkpt>
      <trkpt lat="43.81959" lon="3.73613">
        <ele>203.456177</ele>
        <time>2015-03-28T12:08:15Z</time>
      </trkpt>
      <trkpt lat="43.81959" lon="3.73618">
        <ele>202.975464</ele>
        <time>2015-03-28T12:08:20Z</time>
      </trkpt>
      <trkpt lat="43.81964" lon="3.73638">
        <ele>202.014282</ele>
        <time>2015-03-28T12:08:33Z</time>
      </trkpt>
      <trkpt lat="43.81964" lon="3.73656">
        <ele>200.091675</ele>
        <time>2015-03-28T12:08:47Z</time>
      </trkpt>
      <trkpt lat="43.81966" lon="3.73673">
        <ele>197.688232</ele>
        <time>2015-03-28T12:09:04Z</time>
      </trkpt>
      <trkpt lat="43.81968" lon="3.73685">
        <ele>197.20752</ele>
        <time>2015-03-28T12:09:14Z</time>
      </trkpt>
      <trkpt lat="43.81969" lon="3.73702">
        <ele>196.726929</ele>
        <time>2015-03-28T12:09:27Z</time>
      </trkpt>
      <trkpt lat="43.81965" lon="3.7372">
        <ele>196.246338</ele>
        <time>2015-03-28T12:09:39Z</time>
      </trkpt>
      <trkpt lat="43.81961" lon="3.73732">
        <ele>192.881714</ele>
        <time>2015-03-28T12:09:49Z</time>
      </trkpt>
      <trkpt lat="43.8196" lon="3.73737">
        <ele>192.401123</ele>
        <time>2015-03-28T12:10:09Z</time>
      </trkpt>
      <trkpt lat="43.81961" lon="3.73741">
        <ele>191.920288</ele>
        <time>2015-03-28T12:10:46Z</time>
      </trkpt>
      <trkpt lat="43.81955" lon="3.73748">
        <ele>189.997681</ele>
        <time>2015-03-28T12:11:28Z</time>
      </trkpt>
      <trkpt lat="43.81951" lon="3.73754">
        <ele>186.633179</ele>
        <time>2015-03-28T12:11:35Z</time>
      </trkpt>
      <trkpt lat="43.81944" lon="3.73765">
        <ele>183.268433</ele>
        <time>2015-03-28T12:11:48Z</time>
      </trkpt>
      <trkpt lat="43.81943" lon="3.73768">
        <ele>184.710571</ele>
        <time>2015-03-28T12:11:51Z</time>
      </trkpt>
      <trkpt lat="43.81936" lon="3.73781">
        <ele>182.307129</ele>
        <time>2015-03-28T12:12:02Z</time>
      </trkpt>
      <trkpt lat="43.81928" lon="3.73785">
        <ele>179.423218</ele>
        <time>2015-03-28T12:12:13Z</time>
      </trkpt>
      <trkpt lat="43.81921" lon="3.73794">
        <ele>178.461914</ele>
        <time>2015-03-28T12:12:23Z</time>
      </trkpt>
      <trkpt lat="43.81921" lon="3.73798">
        <ele>179.423218</ele>
        <time>2015-03-28T12:12:25Z</time>
      </trkpt>
      <trkpt lat="43.81917" lon="3.73811">
        <ele>179.423218</ele>
        <time>2015-03-28T12:12:38Z</time>
      </trkpt>
      <trkpt lat="43.81911" lon="3.73822">
        <ele>179.423218</ele>
        <time>2015-03-28T12:12:46Z</time>
      </trkpt>
      <trkpt lat="43.81906" lon="3.73822">
        <ele>179.423218</ele>
        <time>2015-03-28T12:12:51Z</time>
      </trkpt>
      <trkpt lat="43.81905" lon="3.73825">
        <ele>177.981201</ele>
        <time>2015-03-28T12:12:54Z</time>
      </trkpt>
      <trkpt lat="43.81901" lon="3.73829">
        <ele>177.02002</ele>
        <time>2015-03-28T12:13:00Z</time>
      </trkpt>
      <trkpt lat="43.81897" lon="3.7383">
        <ele>177.02002</ele>
        <time>2015-03-28T12:13:03Z</time>
      </trkpt>
      <trkpt lat="43.81887" lon="3.73837">
        <ele>175.577881</ele>
        <time>2015-03-28T12:13:14Z</time>
      </trkpt>
      <trkpt lat="43.81883" lon="3.73841">
        <ele>175.577881</ele>
        <time>2015-03-28T12:13:19Z</time>
      </trkpt>
      <trkpt lat="43.81875" lon="3.73851">
        <ele>171.732666</ele>
        <time>2015-03-28T12:13:31Z</time>
      </trkpt>
      <trkpt lat="43.81866" lon="3.73861">
        <ele>170.771362</ele>
        <time>2015-03-28T12:13:43Z</time>
      </trkpt>
      <trkpt lat="43.81856" lon="3.73873">
        <ele>170.771362</ele>
        <time>2015-03-28T12:13:55Z</time>
      </trkpt>
      <trkpt lat="43.81848" lon="3.73885">
        <ele>168.368042</ele>
        <time>2015-03-28T12:14:08Z</time>
      </trkpt>
      <trkpt lat="43.81843" lon="3.73894">
        <ele>166.926025</ele>
        <time>2015-03-28T12:14:19Z</time>
      </trkpt>
      <trkpt lat="43.81837" lon="3.73896">
        <ele>166.926025</ele>
        <time>2015-03-28T12:14:42Z</time>
      </trkpt>
      <trkpt lat="43.81833" lon="3.739">
        <ele>167.406738</ele>
        <time>2015-03-28T12:14:48Z</time>
      </trkpt>
      <trkpt lat="43.81826" lon="3.73902">
        <ele>165.484131</ele>
        <time>2015-03-28T12:14:54Z</time>
      </trkpt>
      <trkpt lat="43.81812" lon="3.73902">
        <ele>163.561523</ele>
        <time>2015-03-28T12:15:06Z</time>
      </trkpt>
      <trkpt lat="43.81797" lon="3.73905">
        <ele>164.042114</ele>
        <time>2015-03-28T12:15:19Z</time>
      </trkpt>
      <trkpt lat="43.81796" lon="3.73905">
        <ele>164.522705</ele>
        <time>2015-03-28T12:15:20Z</time>
      </trkpt>
      <trkpt lat="43.81786" lon="3.73906">
        <ele>163.561523</ele>
        <time>2015-03-28T12:15:34Z</time>
      </trkpt>
      <trkpt lat="43.81782" lon="3.73904">
        <ele>163.561523</ele>
        <time>2015-03-28T12:15:47Z</time>
      </trkpt>
      <trkpt lat="43.81771" lon="3.73901">
        <ele>162.119507</ele>
        <time>2015-03-28T12:15:58Z</time>
      </trkpt>
      <trkpt lat="43.81757" lon="3.73905">
        <ele>160.67749</ele>
        <time>2015-03-28T12:16:13Z</time>
      </trkpt>
      <trkpt lat="43.8175" lon="3.73907">
        <ele>160.67749</ele>
        <time>2015-03-28T12:16:31Z</time>
      </trkpt>
      <trkpt lat="43.8175" lon="3.73903">
        <ele>163.561523</ele>
        <time>2015-03-28T12:17:18Z</time>
      </trkpt>
      <trkpt lat="43.81759" lon="3.73908">
        <ele>163.561523</ele>
        <time>2015-03-28T12:17:25Z</time>
      </trkpt>
      <trkpt lat="43.81761" lon="3.73911">
        <ele>164.522705</ele>
        <time>2015-03-28T12:17:27Z</time>
      </trkpt>
      <trkpt lat="43.81771" lon="3.73928">
        <ele>164.522705</ele>
        <time>2015-03-28T12:17:39Z</time>
      </trkpt>
      <trkpt lat="43.81769" lon="3.7393">
        <ele>165.003418</ele>
        <time>2015-03-28T12:17:42Z</time>
      </trkpt>
      <trkpt lat="43.81762" lon="3.73934">
        <ele>163.080811</ele>
        <time>2015-03-28T12:17:52Z</time>
      </trkpt>
      <trkpt lat="43.81758" lon="3.73942">
        <ele>163.080811</ele>
        <time>2015-03-28T12:18:06Z</time>
      </trkpt>
      <trkpt lat="43.81754" lon="3.73948">
        <ele>160.67749</ele>
        <time>2015-03-28T12:18:48Z</time>
      </trkpt>
      <trkpt lat="43.81757" lon="3.73952">
        <ele>161.638916</ele>
        <time>2015-03-28T12:19:09Z</time>
      </trkpt>
      <trkpt lat="43.81767" lon="3.73962">
        <ele>163.561523</ele>
        <time>2015-03-28T12:19:21Z</time>
      </trkpt>
      <trkpt lat="43.81774" lon="3.7397">
        <ele>162.119507</ele>
        <time>2015-03-28T12:19:33Z</time>
      </trkpt>
      <trkpt lat="43.81776" lon="3.73968">
        <ele>163.080811</ele>
        <time>2015-03-28T12:19:36Z</time>
      </trkpt>
      <trkpt lat="43.81778" lon="3.73963">
        <ele>162.600098</ele>
        <time>2015-03-28T12:19:50Z</time>
      </trkpt>
      <trkpt lat="43.81784" lon="3.73942">
        <ele>164.522705</ele>
        <time>2015-03-28T12:20:03Z</time>
      </trkpt>
      <trkpt lat="43.81787" lon="3.73947">
        <ele>164.042114</ele>
        <time>2015-03-28T12:20:07Z</time>
      </trkpt>
      <trkpt lat="43.81793" lon="3.73961">
        <ele>163.080811</ele>
        <time>2015-03-28T12:20:18Z</time>
      </trkpt>
      <trkpt lat="43.81791" lon="3.73974">
        <ele>161.638916</ele>
        <time>2015-03-28T12:20:31Z</time>
      </trkpt>
      <trkpt lat="43.8179" lon="3.73977">
        <ele>162.600098</ele>
        <time>2015-03-28T12:20:40Z</time>
      </trkpt>
      <trkpt lat="43.81786" lon="3.73985">
        <ele>163.080811</ele>
        <time>2015-03-28T12:20:52Z</time>
      </trkpt>
      <trkpt lat="43.81783" lon="3.73995">
        <ele>161.638916</ele>
        <time>2015-03-28T12:21:03Z</time>
      </trkpt>
      <trkpt lat="43.81783" lon="3.73999">
        <ele>162.119507</ele>
        <time>2015-03-28T12:21:15Z</time>
      </trkpt>
      <trkpt lat="43.81785" lon="3.74001">
        <ele>161.158203</ele>
        <time>2015-03-28T12:21:17Z</time>
      </trkpt>
      <trkpt lat="43.81788" lon="3.74006">
        <ele>164.522705</ele>
        <time>2015-03-28T12:21:25Z</time>
      </trkpt>
      <trkpt lat="43.81788" lon="3.74007">
        <ele>164.522705</ele>
        <time>2015-03-28T12:21:26Z</time>
      </trkpt>
      <trkpt lat="43.81789" lon="3.74022">
        <ele>164.042114</ele>
        <time>2015-03-28T12:21:39Z</time>
      </trkpt>
      <trkpt lat="43.8179" lon="3.74025">
        <ele>164.522705</ele>
        <time>2015-03-28T12:21:41Z</time>
      </trkpt>
      <trkpt lat="43.81789" lon="3.74038">
        <ele>165.003418</ele>
        <time>2015-03-28T12:21:54Z</time>
      </trkpt>
      <trkpt lat="43.81785" lon="3.74055">
        <ele>165.003418</ele>
        <time>2015-03-28T12:22:07Z</time>
      </trkpt>
      <trkpt lat="43.81783" lon="3.74066">
        <ele>165.484131</ele>
        <time>2015-03-28T12:22:14Z</time>
      </trkpt>
      <trkpt lat="43.81768" lon="3.74069">
        <ele>166.445312</ele>
        <time>2015-03-28T12:22:28Z</time>
      </trkpt>
      <trkpt lat="43.81767" lon="3.74069">
        <ele>166.445312</ele>
        <time>2015-03-28T12:22:29Z</time>
      </trkpt>
      <trkpt lat="43.81763" lon="3.74067">
        <ele>165.484131</ele>
        <time>2015-03-28T12:22:32Z</time>
      </trkpt>
      <trkpt lat="43.81759" lon="3.74065">
        <ele>166.445312</ele>
        <time>2015-03-28T12:22:37Z</time>
      </trkpt>
      <trkpt lat="43.81752" lon="3.74063">
        <ele>166.926025</ele>
        <time>2015-03-28T12:22:43Z</time>
      </trkpt>
      <trkpt lat="43.81751" lon="3.74062">
        <ele>165.484131</ele>
        <time>2015-03-28T12:22:45Z</time>
      </trkpt>
      <trkpt lat="43.81742" lon="3.74057">
        <ele>167.887329</ele>
        <time>2015-03-28T12:22:54Z</time>
      </trkpt>
      <trkpt lat="43.81735" lon="3.74052">
        <ele>167.887329</ele>
        <time>2015-03-28T12:23:00Z</time>
      </trkpt>
      <trkpt lat="43.81733" lon="3.74053">
        <ele>168.848755</ele>
        <time>2015-03-28T12:23:02Z</time>
      </trkpt>
      <trkpt lat="43.81727" lon="3.74061">
        <ele>167.406738</ele>
        <time>2015-03-28T12:23:17Z</time>
      </trkpt>
      <trkpt lat="43.81724" lon="3.74055">
        <ele>166.926025</ele>
        <time>2015-03-28T12:23:21Z</time>
      </trkpt>
      <trkpt lat="43.81719" lon="3.74051">
        <ele>168.368042</ele>
        <time>2015-03-28T12:23:27Z</time>
      </trkpt>
      <trkpt lat="43.81716" lon="3.74051">
        <ele>167.406738</ele>
        <time>2015-03-28T12:23:30Z</time>
      </trkpt>
      <trkpt lat="43.81714" lon="3.74051">
        <ele>167.887329</ele>
        <time>2015-03-28T12:23:32Z</time>
      </trkpt>
      <trkpt lat="43.81701" lon="3.74055">
        <ele>168.368042</ele>
        <time>2015-03-28T12:23:43Z</time>
      </trkpt>
      <trkpt lat="43.81685" lon="3.74059">
        <ele>168.368042</ele>
        <time>2015-03-28T12:23:59Z</time>
      </trkpt>
      <trkpt lat="43.81679" lon="3.74061">
        <ele>170.290649</ele>
        <time>2015-03-28T12:24:05Z</time>
      </trkpt>
      <trkpt lat="43.81674" lon="3.74062">
        <ele>169.810059</ele>
        <time>2015-03-28T12:24:09Z</time>
      </trkpt>
      <trkpt lat="43.81668" lon="3.74065">
        <ele>168.848755</ele>
        <time>2015-03-28T12:24:15Z</time>
      </trkpt>
      <trkpt lat="43.81657" lon="3.74069">
        <ele>172.213257</ele>
        <time>2015-03-28T12:24:24Z</time>
      </trkpt>
      <trkpt lat="43.8164" lon="3.74071">
        <ele>173.174683</ele>
        <time>2015-03-28T12:24:38Z</time>
      </trkpt>
      <trkpt lat="43.81638" lon="3.74071">
        <ele>171.732666</ele>
        <time>2015-03-28T12:24:40Z</time>
      </trkpt>
      <trkpt lat="43.81634" lon="3.7407">
        <ele>172.213257</ele>
        <time>2015-03-28T12:24:44Z</time>
      </trkpt>
      <trkpt lat="43.8163" lon="3.7407">
        <ele>173.655273</ele>
        <time>2015-03-28T12:24:47Z</time>
      </trkpt>
      <trkpt lat="43.8162" lon="3.7407">
        <ele>173.655273</ele>
        <time>2015-03-28T12:24:56Z</time>
      </trkpt>
      <trkpt lat="43.81618" lon="3.74068">
        <ele>172.69397</ele>
        <time>2015-03-28T12:24:58Z</time>
      </trkpt>
      <trkpt lat="43.81616" lon="3.74068">
        <ele>174.135864</ele>
        <time>2015-03-28T12:25:00Z</time>
      </trkpt>
      <trkpt lat="43.81613" lon="3.74067">
        <ele>173.174683</ele>
        <time>2015-03-28T12:25:02Z</time>
      </trkpt>
      <trkpt lat="43.81596" lon="3.74062">
        <ele>172.69397</ele>
        <time>2015-03-28T12:25:15Z</time>
      </trkpt>
      <trkpt lat="43.81591" lon="3.74061">
        <ele>174.135864</ele>
        <time>2015-03-28T12:25:19Z</time>
      </trkpt>
      <trkpt lat="43.81581" lon="3.74066">
        <ele>175.09729</ele>
        <time>2015-03-28T12:25:27Z</time>
      </trkpt>
      <trkpt lat="43.81568" lon="3.74074">
        <ele>174.135864</ele>
        <time>2015-03-28T12:25:38Z</time>
      </trkpt>
      <trkpt lat="43.81564" lon="3.74073">
        <ele>178.461914</ele>
        <time>2015-03-28T12:25:42Z</time>
      </trkpt>
      <trkpt lat="43.81557" lon="3.74075">
        <ele>176.539307</ele>
        <time>2015-03-28T12:25:48Z</time>
      </trkpt>
      <trkpt lat="43.81548" lon="3.74076">
        <ele>178.461914</ele>
        <time>2015-03-28T12:25:56Z</time>
      </trkpt>
      <trkpt lat="43.81541" lon="3.74083">
        <ele>179.903809</ele>
        <time>2015-03-28T12:26:04Z</time>
      </trkpt>
      <trkpt lat="43.8153" lon="3.74085">
        <ele>178.461914</ele>
        <time>2015-03-28T12:26:13Z</time>
      </trkpt>
      <trkpt lat="43.81528" lon="3.74085">
        <ele>179.423218</ele>
        <time>2015-03-28T12:26:15Z</time>
      </trkpt>
      <trkpt lat="43.81518" lon="3.74087">
        <ele>180.384521</ele>
        <time>2015-03-28T12:26:23Z</time>
      </trkpt>
      <trkpt lat="43.81514" lon="3.74088">
        <ele>181.345825</ele>
        <time>2015-03-28T12:26:27Z</time>
      </trkpt>
      <trkpt lat="43.81498" lon="3.74083">
        <ele>179.423218</ele>
        <time>2015-03-28T12:26:41Z</time>
      </trkpt>
      <trkpt lat="43.81492" lon="3.74082">
        <ele>180.384521</ele>
        <time>2015-03-28T12:26:47Z</time>
      </trkpt>
      <trkpt lat="43.81485" lon="3.74077">
        <ele>180.865234</ele>
        <time>2015-03-28T12:26:53Z</time>
      </trkpt>
      <trkpt lat="43.81476" lon="3.74077">
        <ele>180.384521</ele>
        <time>2015-03-28T12:27:01Z</time>
      </trkpt>
      <trkpt lat="43.81468" lon="3.74077">
        <ele>180.384521</ele>
        <time>2015-03-28T12:27:08Z</time>
      </trkpt>
      <trkpt lat="43.81461" lon="3.74075">
        <ele>179.423218</ele>
        <time>2015-03-28T12:27:14Z</time>
      </trkpt>
      <trkpt lat="43.81449" lon="3.74072">
        <ele>179.423218</ele>
        <time>2015-03-28T12:27:25Z</time>
      </trkpt>
      <trkpt lat="43.81444" lon="3.74071">
        <ele>177.981201</ele>
        <time>2015-03-28T12:27:29Z</time>
      </trkpt>
      <trkpt lat="43.81437" lon="3.74068">
        <ele>177.981201</ele>
        <time>2015-03-28T12:27:35Z</time>
      </trkpt>
      <trkpt lat="43.81422" lon="3.74068">
        <ele>178.461914</ele>
        <time>2015-03-28T12:27:46Z</time>
      </trkpt>
      <trkpt lat="43.81413" lon="3.7407">
        <ele>179.423218</ele>
        <time>2015-03-28T12:27:55Z</time>
      </trkpt>
      <trkpt lat="43.81408" lon="3.74075">
        <ele>181.345825</ele>
        <time>2015-03-28T12:28:00Z</time>
      </trkpt>
      <trkpt lat="43.814" lon="3.74084">
        <ele>181.345825</ele>
        <time>2015-03-28T12:28:12Z</time>
      </trkpt>
      <trkpt lat="43.814" lon="3.74087">
        <ele>181.826416</ele>
        <time>2015-03-28T12:28:14Z</time>
      </trkpt>
      <trkpt lat="43.81398" lon="3.7409">
        <ele>183.268433</ele>
        <time>2015-03-28T12:28:17Z</time>
      </trkpt>
      <trkpt lat="43.81389" lon="3.74101">
        <ele>185.671753</ele>
        <time>2015-03-28T12:28:30Z</time>
      </trkpt>
      <trkpt lat="43.81386" lon="3.74101">
        <ele>183.749023</ele>
        <time>2015-03-28T12:28:32Z</time>
      </trkpt>
      <trkpt lat="43.81382" lon="3.74104">
        <ele>185.671753</ele>
        <time>2015-03-28T12:28:38Z</time>
      </trkpt>
      <trkpt lat="43.81373" lon="3.74106">
        <ele>186.633179</ele>
        <time>2015-03-28T12:28:50Z</time>
      </trkpt>
      <trkpt lat="43.81371" lon="3.74106">
        <ele>187.59436</ele>
        <time>2015-03-28T12:28:53Z</time>
      </trkpt>
      <trkpt lat="43.8136" lon="3.74105">
        <ele>189.036377</ele>
        <time>2015-03-28T12:29:04Z</time>
      </trkpt>
      <trkpt lat="43.81357" lon="3.74105">
        <ele>189.036377</ele>
        <time>2015-03-28T12:29:07Z</time>
      </trkpt>
      <trkpt lat="43.81349" lon="3.74104">
        <ele>189.997681</ele>
        <time>2015-03-28T12:29:15Z</time>
      </trkpt>
      <trkpt lat="43.81346" lon="3.74104">
        <ele>189.516968</ele>
        <time>2015-03-28T12:29:17Z</time>
      </trkpt>
      <trkpt lat="43.81337" lon="3.74109">
        <ele>190.478394</ele>
        <time>2015-03-28T12:29:25Z</time>
      </trkpt>
      <trkpt lat="43.81335" lon="3.74116">
        <ele>189.997681</ele>
        <time>2015-03-28T12:29:30Z</time>
      </trkpt>
      <trkpt lat="43.81324" lon="3.74129">
        <ele>187.11377</ele>
        <time>2015-03-28T12:29:42Z</time>
      </trkpt>
      <trkpt lat="43.81312" lon="3.74133">
        <ele>186.633179</ele>
        <time>2015-03-28T12:29:52Z</time>
      </trkpt>
      <trkpt lat="43.81299" lon="3.74138">
        <ele>186.152466</ele>
        <time>2015-03-28T12:30:05Z</time>
      </trkpt>
      <trkpt lat="43.81293" lon="3.74143">
        <ele>184.710571</ele>
        <time>2015-03-28T12:30:12Z</time>
      </trkpt>
      <trkpt lat="43.81285" lon="3.74151">
        <ele>182.787842</ele>
        <time>2015-03-28T12:30:24Z</time>
      </trkpt>
      <trkpt lat="43.81281" lon="3.74156">
        <ele>181.345825</ele>
        <time>2015-03-28T12:30:32Z</time>
      </trkpt>
      <trkpt lat="43.8127" lon="3.74161">
        <ele>178.942627</ele>
        <time>2015-03-28T12:30:42Z</time>
      </trkpt>
      <trkpt lat="43.81266" lon="3.74165">
        <ele>178.461914</ele>
        <time>2015-03-28T12:30:46Z</time>
      </trkpt>
      <trkpt lat="43.81261" lon="3.7417">
        <ele>176.058594</ele>
        <time>2015-03-28T12:30:53Z</time>
      </trkpt>
      <trkpt lat="43.81256" lon="3.74172">
        <ele>176.539307</ele>
        <time>2015-03-28T12:30:57Z</time>
      </trkpt>
      <trkpt lat="43.81253" lon="3.74177">
        <ele>175.577881</ele>
        <time>2015-03-28T12:31:01Z</time>
      </trkpt>
      <trkpt lat="43.8124" lon="3.74179">
        <ele>174.616577</ele>
        <time>2015-03-28T12:31:14Z</time>
      </trkpt>
      <trkpt lat="43.81237" lon="3.74181">
        <ele>174.135864</ele>
        <time>2015-03-28T12:31:17Z</time>
      </trkpt>
      <trkpt lat="43.81226" lon="3.7419">
        <ele>173.174683</ele>
        <time>2015-03-28T12:31:32Z</time>
      </trkpt>
      <trkpt lat="43.81228" lon="3.74196">
        <ele>170.771362</ele>
        <time>2015-03-28T12:31:37Z</time>
      </trkpt>
      <trkpt lat="43.81232" lon="3.742">
        <ele>169.810059</ele>
        <time>2015-03-28T12:31:42Z</time>
      </trkpt>
      <trkpt lat="43.81232" lon="3.74203">
        <ele>167.406738</ele>
        <time>2015-03-28T12:31:44Z</time>
      </trkpt>
      <trkpt lat="43.81228" lon="3.74217">
        <ele>167.887329</ele>
        <time>2015-03-28T12:31:58Z</time>
      </trkpt>
      <trkpt lat="43.81232" lon="3.74219">
        <ele>166.926025</ele>
        <time>2015-03-28T12:32:26Z</time>
      </trkpt>
      <trkpt lat="43.81232" lon="3.74215">
        <ele>167.887329</ele>
        <time>2015-03-28T12:32:36Z</time>
      </trkpt>
      <trkpt lat="43.81236" lon="3.74199">
        <ele>164.042114</ele>
        <time>2015-03-28T12:32:45Z</time>
      </trkpt>
      <trkpt lat="43.81237" lon="3.74198">
        <ele>167.406738</ele>
        <time>2015-03-28T12:32:46Z</time>
      </trkpt>
      <trkpt lat="43.81237" lon="3.74196">
        <ele>170.290649</ele>
        <time>2015-03-28T12:32:48Z</time>
      </trkpt>
      <trkpt lat="43.81234" lon="3.74193">
        <ele>161.638916</ele>
        <time>2015-03-28T12:32:50Z</time>
      </trkpt>
      <trkpt lat="43.81233" lon="3.74192">
        <ele>176.539307</ele>
        <time>2015-03-28T12:32:51Z</time>
      </trkpt>
      <trkpt lat="43.81233" lon="3.74191">
        <ele>171.252075</ele>
        <time>2015-03-28T12:32:52Z</time>
      </trkpt>
      <trkpt lat="43.81231" lon="3.74189">
        <ele>172.213257</ele>
        <time>2015-03-28T12:32:55Z</time>
      </trkpt>
      <trkpt lat="43.81227" lon="3.74187">
        <ele>172.213257</ele>
        <time>2015-03-28T12:32:58Z</time>
      </trkpt>
      <trkpt lat="43.81221" lon="3.74189">
        <ele>174.135864</ele>
        <time>2015-03-28T12:33:02Z</time>
      </trkpt>
      <trkpt lat="43.81214" lon="3.74189">
        <ele>174.616577</ele>
        <time>2015-03-28T12:33:12Z</time>
      </trkpt>
      <trkpt lat="43.81212" lon="3.74189">
        <ele>174.616577</ele>
        <time>2015-03-28T12:33:18Z</time>
      </trkpt>
      <trkpt lat="43.81201" lon="3.74201">
        <ele>175.09729</ele>
        <time>2015-03-28T12:33:31Z</time>
      </trkpt>
      <trkpt lat="43.81202" lon="3.74204">
        <ele>169.810059</ele>
        <time>2015-03-28T12:33:43Z</time>
      </trkpt>
      <trkpt lat="43.81202" lon="3.74203">
        <ele>176.058594</ele>
        <time>2015-03-28T12:33:44Z</time>
      </trkpt>
      <trkpt lat="43.81202" lon="3.74202">
        <ele>172.213257</ele>
        <time>2015-03-28T12:33:45Z</time>
      </trkpt>
      <trkpt lat="43.81202" lon="3.74202">
        <ele>176.058594</ele>
        <time>2015-03-28T12:33:46Z</time>
      </trkpt>
      <trkpt lat="43.81207" lon="3.74192">
        <ele>175.09729</ele>
        <time>2015-03-28T12:34:39Z</time>
      </trkpt>
    </trkseg>
  </trk>
</gpx>